<?xml version="1.0" encoding="UTF-8" standalone="no" ?>
<gpx xmlns="http://www.topografix.com/GPX/1/1" xmlns:xsi="http://www.w3.org/2001/XMLSchema-instance" xsi:schemaLocation="http://www.topografix.com/GPX/1/1 http://www.topografix.com/GPX/1/1/gpx.xsd" version="1.1" creator="VisuGPX - https://www.visugpx.com">
  <metadata>
    <name>Andancette-Valence-52-30</name>
    <desc><![CDATA[Via Rhona - Etape 2 : Andancette - Valence - 52 km - Dénivelé : 30 m]]></desc>
  </metadata>
  <trk>
    <name><![CDATA[Andancette-Valence]]></name>
    <extensions>
      <line xmlns="http://www.topografix.com/GPX/gpx_style/0/2">
        <color>ff0000</color>
        <opacity>1.0</opacity>
        <width>2.0</width>
      </line>
    </extensions>
    <trkseg>
      <trkpt lat="45.24131" lon="4.80286">
        <ele>136</ele>
        <time>2013-04-23T14:50:48Z</time>
      </trkpt>
      <trkpt lat="45.24118" lon="4.8029">
        <ele>136</ele>
        <time>2013-04-23T14:50:51Z</time>
      </trkpt>
      <trkpt lat="45.24099" lon="4.80295">
        <ele>136</ele>
        <time>2013-04-23T14:50:55Z</time>
      </trkpt>
      <trkpt lat="45.24059" lon="4.80302">
        <ele>136</ele>
        <time>2013-04-23T14:51:03Z</time>
      </trkpt>
      <trkpt lat="45.24017" lon="4.80305">
        <ele>136</ele>
        <time>2013-04-23T14:51:11Z</time>
      </trkpt>
      <trkpt lat="45.2399" lon="4.80308">
        <ele>136</ele>
        <time>2013-04-23T14:51:17Z</time>
      </trkpt>
      <trkpt lat="45.23963" lon="4.80311">
        <ele>136</ele>
        <time>2013-04-23T14:51:24Z</time>
      </trkpt>
      <trkpt lat="45.23936" lon="4.80316">
        <ele>136</ele>
        <time>2013-04-23T14:51:31Z</time>
      </trkpt>
      <trkpt lat="45.23909" lon="4.80325">
        <ele>136</ele>
        <time>2013-04-23T14:51:37Z</time>
      </trkpt>
      <trkpt lat="45.23889" lon="4.8033">
        <ele>136</ele>
        <time>2013-04-23T14:51:41Z</time>
      </trkpt>
      <trkpt lat="45.23878" lon="4.80332">
        <ele>136</ele>
        <time>2013-04-23T14:51:43Z</time>
      </trkpt>
      <trkpt lat="45.23831" lon="4.80342">
        <ele>136</ele>
        <time>2013-04-23T14:51:52Z</time>
      </trkpt>
      <trkpt lat="45.23792" lon="4.80352">
        <ele>136</ele>
        <time>2013-04-23T14:52:00Z</time>
      </trkpt>
      <trkpt lat="45.23756" lon="4.80361">
        <ele>136</ele>
        <time>2013-04-23T14:52:08Z</time>
      </trkpt>
      <trkpt lat="45.23739" lon="4.80365">
        <ele>136</ele>
        <time>2013-04-23T14:52:14Z</time>
      </trkpt>
      <trkpt lat="45.23735" lon="4.80368">
        <ele>136</ele>
        <time>2013-04-23T14:52:19Z</time>
      </trkpt>
      <trkpt lat="45.23735" lon="4.80368">
        <ele>136</ele>
        <time>2013-04-23T14:52:33Z</time>
      </trkpt>
      <trkpt lat="45.23735" lon="4.80368">
        <ele>136</ele>
        <time>2013-04-23T14:52:47Z</time>
      </trkpt>
      <trkpt lat="45.23731" lon="4.80365">
        <ele>136</ele>
        <time>2013-04-23T14:52:53Z</time>
      </trkpt>
      <trkpt lat="45.23731" lon="4.80365">
        <ele>136</ele>
      </trkpt>
      <trkpt lat="45.23719" lon="4.80369">
        <ele>136</ele>
        <time>2013-04-23T14:52:57Z</time>
      </trkpt>
      <trkpt lat="45.23703" lon="4.80372">
        <ele>136</ele>
        <time>2013-04-23T14:53:00Z</time>
      </trkpt>
      <trkpt lat="45.23702" lon="4.80375">
        <ele>136</ele>
        <time>2013-04-23T14:53:29Z</time>
      </trkpt>
      <trkpt lat="45.237" lon="4.80378">
        <ele>136</ele>
        <time>2013-04-23T14:53:31Z</time>
      </trkpt>
      <trkpt lat="45.23697" lon="4.80389">
        <ele>136</ele>
        <time>2013-04-23T14:53:37Z</time>
      </trkpt>
      <trkpt lat="45.23707" lon="4.80403">
        <ele>136</ele>
        <time>2013-04-23T14:55:36Z</time>
      </trkpt>
      <trkpt lat="45.23723" lon="4.80427">
        <ele>136</ele>
        <time>2013-04-23T14:55:42Z</time>
      </trkpt>
      <trkpt lat="45.23742" lon="4.80447">
        <ele>136</ele>
        <time>2013-04-23T14:55:48Z</time>
      </trkpt>
      <trkpt lat="45.23745" lon="4.80451">
        <ele>136</ele>
        <time>2013-04-23T14:55:49Z</time>
      </trkpt>
      <trkpt lat="45.23771" lon="4.80476">
        <ele>136</ele>
        <time>2013-04-23T14:55:56Z</time>
      </trkpt>
      <trkpt lat="45.23796" lon="4.80504">
        <ele>136</ele>
        <time>2013-04-23T14:56:03Z</time>
      </trkpt>
      <trkpt lat="45.23817" lon="4.80529">
        <ele>136</ele>
        <time>2013-04-23T14:56:09Z</time>
      </trkpt>
      <trkpt lat="45.23825" lon="4.80536">
        <ele>136</ele>
        <time>2013-04-23T14:56:11Z</time>
      </trkpt>
      <trkpt lat="45.23851" lon="4.80563">
        <ele>136</ele>
        <time>2013-04-23T14:56:18Z</time>
      </trkpt>
      <trkpt lat="45.23876" lon="4.80587">
        <ele>136</ele>
        <time>2013-04-23T14:56:25Z</time>
      </trkpt>
      <trkpt lat="45.23895" lon="4.80608">
        <ele>136</ele>
        <time>2013-04-23T14:56:32Z</time>
      </trkpt>
      <trkpt lat="45.23911" lon="4.80626">
        <ele>136</ele>
        <time>2013-04-23T14:56:38Z</time>
      </trkpt>
      <trkpt lat="45.23911" lon="4.80626">
        <ele>136</ele>
        <time>2013-04-23T14:56:42Z</time>
      </trkpt>
      <trkpt lat="45.23911" lon="4.80626">
        <ele>136</ele>
      </trkpt>
      <trkpt lat="45.23911" lon="4.80626">
        <ele>136</ele>
        <time>2013-04-23T14:56:54Z</time>
      </trkpt>
      <trkpt lat="45.2391" lon="4.80627">
        <ele>136</ele>
        <time>2013-04-23T14:57:03Z</time>
      </trkpt>
      <trkpt lat="45.2391" lon="4.80627">
        <ele>136</ele>
        <time>2013-04-23T14:57:05Z</time>
      </trkpt>
      <trkpt lat="45.2391" lon="4.80627">
        <ele>136</ele>
        <time>2013-04-23T14:57:19Z</time>
      </trkpt>
      <trkpt lat="45.23905" lon="4.80632">
        <ele>136</ele>
        <time>2013-04-23T14:57:23Z</time>
      </trkpt>
      <trkpt lat="45.23889" lon="4.80644">
        <ele>136</ele>
        <time>2013-04-23T14:57:28Z</time>
      </trkpt>
      <trkpt lat="45.23867" lon="4.80652">
        <ele>136</ele>
        <time>2013-04-23T14:57:34Z</time>
      </trkpt>
      <trkpt lat="45.23851" lon="4.80655">
        <ele>136</ele>
        <time>2013-04-23T14:57:40Z</time>
      </trkpt>
      <trkpt lat="45.23851" lon="4.80655">
        <ele>136</ele>
        <time>2013-04-23T14:57:45Z</time>
      </trkpt>
      <trkpt lat="45.23851" lon="4.80655">
        <ele>135</ele>
        <time>2013-04-23T14:57:46Z</time>
      </trkpt>
      <trkpt lat="45.23851" lon="4.80655">
        <ele>135</ele>
        <time>2013-04-23T14:57:47Z</time>
      </trkpt>
      <trkpt lat="45.23851" lon="4.80655">
        <ele>135</ele>
        <time>2013-04-23T14:57:48Z</time>
      </trkpt>
      <trkpt lat="45.23851" lon="4.80655">
        <ele>134</ele>
        <time>2013-04-23T14:57:49Z</time>
      </trkpt>
      <trkpt lat="45.23851" lon="4.80654">
        <ele>134</ele>
        <time>2013-04-23T14:57:56Z</time>
      </trkpt>
      <trkpt lat="45.23849" lon="4.80652">
        <ele>134</ele>
        <time>2013-04-23T14:57:57Z</time>
      </trkpt>
      <trkpt lat="45.23849" lon="4.80652">
        <ele>134</ele>
      </trkpt>
      <trkpt lat="45.23839" lon="4.80637">
        <ele>134</ele>
        <time>2013-04-23T14:58:01Z</time>
      </trkpt>
      <trkpt lat="45.2381" lon="4.80609">
        <ele>134</ele>
        <time>2013-04-23T14:58:08Z</time>
      </trkpt>
      <trkpt lat="45.23779" lon="4.80579">
        <ele>134</ele>
        <time>2013-04-23T14:58:15Z</time>
      </trkpt>
      <trkpt lat="45.23756" lon="4.80559">
        <ele>134</ele>
        <time>2013-04-23T14:58:20Z</time>
      </trkpt>
      <trkpt lat="45.23726" lon="4.80534">
        <ele>134</ele>
        <time>2013-04-23T14:58:26Z</time>
      </trkpt>
      <trkpt lat="45.23696" lon="4.80511">
        <ele>134</ele>
        <time>2013-04-23T14:58:33Z</time>
      </trkpt>
      <trkpt lat="45.2369" lon="4.80509">
        <ele>134</ele>
        <time>2013-04-23T14:58:34Z</time>
      </trkpt>
      <trkpt lat="45.23675" lon="4.80503">
        <ele>134</ele>
        <time>2013-04-23T14:58:37Z</time>
      </trkpt>
      <trkpt lat="45.23665" lon="4.805">
        <ele>134</ele>
        <time>2013-04-23T14:58:39Z</time>
      </trkpt>
      <trkpt lat="45.23648" lon="4.80496">
        <ele>134</ele>
        <time>2013-04-23T14:58:42Z</time>
      </trkpt>
      <trkpt lat="45.23637" lon="4.80494">
        <ele>134</ele>
        <time>2013-04-23T14:58:44Z</time>
      </trkpt>
      <trkpt lat="45.23631" lon="4.80492">
        <ele>134</ele>
        <time>2013-04-23T14:58:45Z</time>
      </trkpt>
      <trkpt lat="45.23607" lon="4.80486">
        <ele>134</ele>
        <time>2013-04-23T14:58:49Z</time>
      </trkpt>
      <trkpt lat="45.23571" lon="4.80479">
        <ele>134</ele>
        <time>2013-04-23T14:58:55Z</time>
      </trkpt>
      <trkpt lat="45.2354" lon="4.80474">
        <ele>134</ele>
        <time>2013-04-23T14:59:00Z</time>
      </trkpt>
      <trkpt lat="45.23495" lon="4.80463">
        <ele>134</ele>
        <time>2013-04-23T14:59:07Z</time>
      </trkpt>
      <trkpt lat="45.23451" lon="4.80454">
        <ele>134</ele>
        <time>2013-04-23T14:59:14Z</time>
      </trkpt>
      <trkpt lat="45.23415" lon="4.80446">
        <ele>134</ele>
        <time>2013-04-23T14:59:20Z</time>
      </trkpt>
      <trkpt lat="45.23379" lon="4.80432">
        <ele>134</ele>
        <time>2013-04-23T14:59:27Z</time>
      </trkpt>
      <trkpt lat="45.23363" lon="4.80427">
        <ele>134</ele>
        <time>2013-04-23T14:59:30Z</time>
      </trkpt>
      <trkpt lat="45.23351" lon="4.80424">
        <ele>134</ele>
        <time>2013-04-23T14:59:32Z</time>
      </trkpt>
      <trkpt lat="45.23346" lon="4.80424">
        <ele>134</ele>
        <time>2013-04-23T14:59:33Z</time>
      </trkpt>
      <trkpt lat="45.23319" lon="4.80422">
        <ele>134</ele>
        <time>2013-04-23T14:59:37Z</time>
      </trkpt>
      <trkpt lat="45.23304" lon="4.80424">
        <ele>134</ele>
        <time>2013-04-23T14:59:39Z</time>
      </trkpt>
      <trkpt lat="45.23284" lon="4.8043">
        <ele>134</ele>
        <time>2013-04-23T14:59:42Z</time>
      </trkpt>
      <trkpt lat="45.23265" lon="4.80439">
        <ele>134</ele>
        <time>2013-04-23T14:59:45Z</time>
      </trkpt>
      <trkpt lat="45.23253" lon="4.8044">
        <ele>134</ele>
        <time>2013-04-23T14:59:47Z</time>
      </trkpt>
      <trkpt lat="45.23211" lon="4.80441">
        <ele>134</ele>
        <time>2013-04-23T14:59:54Z</time>
      </trkpt>
      <trkpt lat="45.23205" lon="4.8044">
        <ele>134</ele>
        <time>2013-04-23T14:59:55Z</time>
      </trkpt>
      <trkpt lat="45.23181" lon="4.80435">
        <ele>134</ele>
        <time>2013-04-23T14:59:59Z</time>
      </trkpt>
      <trkpt lat="45.23143" lon="4.80433">
        <ele>134</ele>
        <time>2013-04-23T15:00:06Z</time>
      </trkpt>
      <trkpt lat="45.23138" lon="4.80433">
        <ele>134</ele>
        <time>2013-04-23T15:00:07Z</time>
      </trkpt>
      <trkpt lat="45.23119" lon="4.80431">
        <ele>134</ele>
        <time>2013-04-23T15:00:10Z</time>
      </trkpt>
      <trkpt lat="45.23074" lon="4.80426">
        <ele>134</ele>
        <time>2013-04-23T15:00:17Z</time>
      </trkpt>
      <trkpt lat="45.23058" lon="4.80425">
        <ele>134</ele>
        <time>2013-04-23T15:00:21Z</time>
      </trkpt>
      <trkpt lat="45.23056" lon="4.80425">
        <ele>134</ele>
        <time>2013-04-23T15:00:24Z</time>
      </trkpt>
      <trkpt lat="45.23056" lon="4.80425">
        <ele>134</ele>
      </trkpt>
      <trkpt lat="45.23056" lon="4.80425">
        <ele>135</ele>
        <time>2013-04-23T15:00:27Z</time>
      </trkpt>
      <trkpt lat="45.23056" lon="4.80425">
        <ele>135</ele>
        <time>2013-04-23T15:00:28Z</time>
      </trkpt>
      <trkpt lat="45.23056" lon="4.80425">
        <ele>135</ele>
        <time>2013-04-23T15:00:29Z</time>
      </trkpt>
      <trkpt lat="45.23056" lon="4.80425">
        <ele>136</ele>
        <time>2013-04-23T15:00:30Z</time>
      </trkpt>
      <trkpt lat="45.23056" lon="4.80425">
        <ele>136</ele>
        <time>2013-04-23T15:00:31Z</time>
      </trkpt>
      <trkpt lat="45.23054" lon="4.80424">
        <ele>136</ele>
        <time>2013-04-23T15:00:34Z</time>
      </trkpt>
      <trkpt lat="45.23042" lon="4.80419">
        <ele>136</ele>
        <time>2013-04-23T15:00:39Z</time>
      </trkpt>
      <trkpt lat="45.23019" lon="4.80412">
        <ele>136</ele>
        <time>2013-04-23T15:00:45Z</time>
      </trkpt>
      <trkpt lat="45.23002" lon="4.80409">
        <ele>136</ele>
        <time>2013-04-23T15:00:49Z</time>
      </trkpt>
      <trkpt lat="45.22986" lon="4.80408">
        <ele>136</ele>
        <time>2013-04-23T15:00:53Z</time>
      </trkpt>
      <trkpt lat="45.22978" lon="4.80407">
        <ele>136</ele>
        <time>2013-04-23T15:00:55Z</time>
      </trkpt>
      <trkpt lat="45.2296" lon="4.80406">
        <ele>136</ele>
        <time>2013-04-23T15:00:59Z</time>
      </trkpt>
      <trkpt lat="45.2292" lon="4.80405">
        <ele>136</ele>
        <time>2013-04-23T15:01:07Z</time>
      </trkpt>
      <trkpt lat="45.22894" lon="4.80407">
        <ele>136</ele>
        <time>2013-04-23T15:01:13Z</time>
      </trkpt>
      <trkpt lat="45.22867" lon="4.80408">
        <ele>136</ele>
        <time>2013-04-23T15:01:20Z</time>
      </trkpt>
      <trkpt lat="45.22849" lon="4.80411">
        <ele>136</ele>
        <time>2013-04-23T15:01:26Z</time>
      </trkpt>
      <trkpt lat="45.22829" lon="4.80416">
        <ele>136</ele>
        <time>2013-04-23T15:01:35Z</time>
      </trkpt>
      <trkpt lat="45.22775" lon="4.80432">
        <ele>136</ele>
        <time>2013-04-23T15:02:51Z</time>
      </trkpt>
      <trkpt lat="45.22749" lon="4.80441">
        <ele>136</ele>
        <time>2013-04-23T15:05:12Z</time>
      </trkpt>
      <trkpt lat="45.22729" lon="4.80448">
        <ele>136</ele>
        <time>2013-04-23T15:05:18Z</time>
      </trkpt>
      <trkpt lat="45.22694" lon="4.8046">
        <ele>136</ele>
        <time>2013-04-23T15:05:26Z</time>
      </trkpt>
      <trkpt lat="45.22675" lon="4.80467">
        <ele>136</ele>
        <time>2013-04-23T15:05:30Z</time>
      </trkpt>
      <trkpt lat="45.2267" lon="4.80469">
        <ele>136</ele>
        <time>2013-04-23T15:05:31Z</time>
      </trkpt>
      <trkpt lat="45.22652" lon="4.80476">
        <ele>136</ele>
        <time>2013-04-23T15:05:35Z</time>
      </trkpt>
      <trkpt lat="45.22642" lon="4.80479">
        <ele>136</ele>
        <time>2013-04-23T15:05:37Z</time>
      </trkpt>
      <trkpt lat="45.22621" lon="4.80488">
        <ele>136</ele>
        <time>2013-04-23T15:05:41Z</time>
      </trkpt>
      <trkpt lat="45.22611" lon="4.80493">
        <ele>136</ele>
        <time>2013-04-23T15:05:43Z</time>
      </trkpt>
      <trkpt lat="45.22591" lon="4.80505">
        <ele>136</ele>
        <time>2013-04-23T15:05:47Z</time>
      </trkpt>
      <trkpt lat="45.2255" lon="4.80528">
        <ele>136</ele>
        <time>2013-04-23T15:05:55Z</time>
      </trkpt>
      <trkpt lat="45.22508" lon="4.80549">
        <ele>136</ele>
        <time>2013-04-23T15:06:03Z</time>
      </trkpt>
      <trkpt lat="45.22471" lon="4.80573">
        <ele>136</ele>
        <time>2013-04-23T15:06:10Z</time>
      </trkpt>
      <trkpt lat="45.2246" lon="4.80579">
        <ele>136</ele>
        <time>2013-04-23T15:06:12Z</time>
      </trkpt>
      <trkpt lat="45.22418" lon="4.806">
        <ele>136</ele>
        <time>2013-04-23T15:06:20Z</time>
      </trkpt>
      <trkpt lat="45.22379" lon="4.80621">
        <ele>136</ele>
        <time>2013-04-23T15:06:27Z</time>
      </trkpt>
      <trkpt lat="45.22343" lon="4.8064">
        <ele>136</ele>
        <time>2013-04-23T15:06:33Z</time>
      </trkpt>
      <trkpt lat="45.22298" lon="4.80662">
        <ele>136</ele>
        <time>2013-04-23T15:06:40Z</time>
      </trkpt>
      <trkpt lat="45.22242" lon="4.80689">
        <ele>136</ele>
        <time>2013-04-23T15:06:49Z</time>
      </trkpt>
      <trkpt lat="45.22201" lon="4.80709">
        <ele>136</ele>
        <time>2013-04-23T15:06:57Z</time>
      </trkpt>
      <trkpt lat="45.22196" lon="4.80711">
        <ele>135</ele>
        <time>2013-04-23T15:06:58Z</time>
      </trkpt>
      <trkpt lat="45.2219" lon="4.80713">
        <ele>135</ele>
        <time>2013-04-23T15:06:59Z</time>
      </trkpt>
      <trkpt lat="45.22184" lon="4.80716">
        <ele>135</ele>
        <time>2013-04-23T15:07:00Z</time>
      </trkpt>
      <trkpt lat="45.22178" lon="4.80718">
        <ele>134</ele>
        <time>2013-04-23T15:07:01Z</time>
      </trkpt>
      <trkpt lat="45.22168" lon="4.80723">
        <ele>134</ele>
        <time>2013-04-23T15:07:03Z</time>
      </trkpt>
      <trkpt lat="45.22143" lon="4.80733">
        <ele>134</ele>
        <time>2013-04-23T15:07:08Z</time>
      </trkpt>
      <trkpt lat="45.2214" lon="4.80734">
        <ele>134</ele>
        <time>2013-04-23T15:07:09Z</time>
      </trkpt>
      <trkpt lat="45.22141" lon="4.80734">
        <ele>134</ele>
        <time>2013-04-23T15:07:12Z</time>
      </trkpt>
      <trkpt lat="45.22139" lon="4.80735">
        <ele>134</ele>
        <time>2013-04-23T15:07:22Z</time>
      </trkpt>
      <trkpt lat="45.22139" lon="4.80735">
        <ele>134</ele>
      </trkpt>
      <trkpt lat="45.22128" lon="4.80739">
        <ele>134</ele>
        <time>2013-04-23T15:07:26Z</time>
      </trkpt>
      <trkpt lat="45.22102" lon="4.80752">
        <ele>134</ele>
        <time>2013-04-23T15:07:31Z</time>
      </trkpt>
      <trkpt lat="45.22068" lon="4.80767">
        <ele>134</ele>
        <time>2013-04-23T15:07:37Z</time>
      </trkpt>
      <trkpt lat="45.22042" lon="4.80781">
        <ele>134</ele>
        <time>2013-04-23T15:07:42Z</time>
      </trkpt>
      <trkpt lat="45.22037" lon="4.80783">
        <ele>134</ele>
        <time>2013-04-23T15:07:43Z</time>
      </trkpt>
      <trkpt lat="45.22031" lon="4.80784">
        <ele>134</ele>
        <time>2013-04-23T15:07:44Z</time>
      </trkpt>
      <trkpt lat="45.22007" lon="4.8079">
        <ele>134</ele>
        <time>2013-04-23T15:07:48Z</time>
      </trkpt>
      <trkpt lat="45.21957" lon="4.80807">
        <ele>134</ele>
        <time>2013-04-23T15:07:56Z</time>
      </trkpt>
      <trkpt lat="45.21919" lon="4.80824">
        <ele>134</ele>
        <time>2013-04-23T15:08:03Z</time>
      </trkpt>
      <trkpt lat="45.21903" lon="4.80836">
        <ele>134</ele>
        <time>2013-04-23T15:08:07Z</time>
      </trkpt>
      <trkpt lat="45.219" lon="4.80841">
        <ele>134</ele>
        <time>2013-04-23T15:08:08Z</time>
      </trkpt>
      <trkpt lat="45.21889" lon="4.80844">
        <ele>134</ele>
        <time>2013-04-23T15:08:12Z</time>
      </trkpt>
      <trkpt lat="45.21872" lon="4.80842">
        <ele>134</ele>
        <time>2013-04-23T15:08:16Z</time>
      </trkpt>
      <trkpt lat="45.21868" lon="4.80843">
        <ele>134</ele>
        <time>2013-04-23T15:08:17Z</time>
      </trkpt>
      <trkpt lat="45.21863" lon="4.80844">
        <ele>134</ele>
        <time>2013-04-23T15:08:18Z</time>
      </trkpt>
      <trkpt lat="45.21852" lon="4.80848">
        <ele>134</ele>
        <time>2013-04-23T15:08:21Z</time>
      </trkpt>
      <trkpt lat="45.21827" lon="4.80855">
        <ele>134</ele>
        <time>2013-04-23T15:08:26Z</time>
      </trkpt>
      <trkpt lat="45.21822" lon="4.80857">
        <ele>134</ele>
        <time>2013-04-23T15:08:27Z</time>
      </trkpt>
      <trkpt lat="45.21789" lon="4.80863">
        <ele>134</ele>
        <time>2013-04-23T15:08:33Z</time>
      </trkpt>
      <trkpt lat="45.21742" lon="4.80872">
        <ele>134</ele>
        <time>2013-04-23T15:08:41Z</time>
      </trkpt>
      <trkpt lat="45.21684" lon="4.80887">
        <ele>134</ele>
        <time>2013-04-23T15:08:51Z</time>
      </trkpt>
      <trkpt lat="45.21678" lon="4.80889">
        <ele>134</ele>
        <time>2013-04-23T15:08:52Z</time>
      </trkpt>
      <trkpt lat="45.2163" lon="4.80903">
        <ele>134</ele>
        <time>2013-04-23T15:09:00Z</time>
      </trkpt>
      <trkpt lat="45.21582" lon="4.80912">
        <ele>134</ele>
        <time>2013-04-23T15:09:08Z</time>
      </trkpt>
      <trkpt lat="45.21535" lon="4.80921">
        <ele>134</ele>
        <time>2013-04-23T15:09:16Z</time>
      </trkpt>
      <trkpt lat="45.21498" lon="4.80927">
        <ele>134</ele>
        <time>2013-04-23T15:09:23Z</time>
      </trkpt>
      <trkpt lat="45.21459" lon="4.80938">
        <ele>134</ele>
        <time>2013-04-23T15:09:30Z</time>
      </trkpt>
      <trkpt lat="45.21453" lon="4.8094">
        <ele>134</ele>
        <time>2013-04-23T15:09:31Z</time>
      </trkpt>
      <trkpt lat="45.21412" lon="4.80952">
        <ele>134</ele>
        <time>2013-04-23T15:09:37Z</time>
      </trkpt>
      <trkpt lat="45.21355" lon="4.80968">
        <ele>134</ele>
        <time>2013-04-23T15:09:46Z</time>
      </trkpt>
      <trkpt lat="45.21316" lon="4.80978">
        <ele>134</ele>
        <time>2013-04-23T15:09:53Z</time>
      </trkpt>
      <trkpt lat="45.2127" lon="4.80988">
        <ele>134</ele>
        <time>2013-04-23T15:10:01Z</time>
      </trkpt>
      <trkpt lat="45.21225" lon="4.81">
        <ele>134</ele>
        <time>2013-04-23T15:10:09Z</time>
      </trkpt>
      <trkpt lat="45.21185" lon="4.81018">
        <ele>134</ele>
        <time>2013-04-23T15:10:17Z</time>
      </trkpt>
      <trkpt lat="45.2118" lon="4.81019">
        <ele>134</ele>
        <time>2013-04-23T15:10:18Z</time>
      </trkpt>
      <trkpt lat="45.21158" lon="4.81028">
        <ele>134</ele>
        <time>2013-04-23T15:10:22Z</time>
      </trkpt>
      <trkpt lat="45.21118" lon="4.81047">
        <ele>134</ele>
        <time>2013-04-23T15:10:29Z</time>
      </trkpt>
      <trkpt lat="45.21073" lon="4.8107">
        <ele>134</ele>
        <time>2013-04-23T15:10:37Z</time>
      </trkpt>
      <trkpt lat="45.21034" lon="4.81089">
        <ele>134</ele>
        <time>2013-04-23T15:10:44Z</time>
      </trkpt>
      <trkpt lat="45.21001" lon="4.81107">
        <ele>134</ele>
        <time>2013-04-23T15:10:51Z</time>
      </trkpt>
      <trkpt lat="45.20962" lon="4.81129">
        <ele>134</ele>
        <time>2013-04-23T15:10:59Z</time>
      </trkpt>
      <trkpt lat="45.20928" lon="4.81147">
        <ele>134</ele>
        <time>2013-04-23T15:11:06Z</time>
      </trkpt>
      <trkpt lat="45.20898" lon="4.81164">
        <ele>134</ele>
        <time>2013-04-23T15:11:13Z</time>
      </trkpt>
      <trkpt lat="45.20879" lon="4.81184">
        <ele>134</ele>
        <time>2013-04-23T15:11:19Z</time>
      </trkpt>
      <trkpt lat="45.20861" lon="4.81205">
        <ele>134</ele>
        <time>2013-04-23T15:11:25Z</time>
      </trkpt>
      <trkpt lat="45.20845" lon="4.81221">
        <ele>134</ele>
        <time>2013-04-23T15:11:30Z</time>
      </trkpt>
      <trkpt lat="45.20837" lon="4.81227">
        <ele>134</ele>
        <time>2013-04-23T15:11:32Z</time>
      </trkpt>
      <trkpt lat="45.20824" lon="4.81231">
        <ele>134</ele>
        <time>2013-04-23T15:11:35Z</time>
      </trkpt>
      <trkpt lat="45.20802" lon="4.81244">
        <ele>134</ele>
        <time>2013-04-23T15:11:41Z</time>
      </trkpt>
      <trkpt lat="45.20786" lon="4.81256">
        <ele>134</ele>
        <time>2013-04-23T15:11:46Z</time>
      </trkpt>
      <trkpt lat="45.20753" lon="4.81268">
        <ele>134</ele>
        <time>2013-04-23T15:11:53Z</time>
      </trkpt>
      <trkpt lat="45.20729" lon="4.81279">
        <ele>134</ele>
        <time>2013-04-23T15:11:59Z</time>
      </trkpt>
      <trkpt lat="45.20702" lon="4.81292">
        <ele>134</ele>
        <time>2013-04-23T15:12:05Z</time>
      </trkpt>
      <trkpt lat="45.20664" lon="4.81311">
        <ele>134</ele>
        <time>2013-04-23T15:12:13Z</time>
      </trkpt>
      <trkpt lat="45.20638" lon="4.81327">
        <ele>134</ele>
        <time>2013-04-23T15:12:19Z</time>
      </trkpt>
      <trkpt lat="45.20622" lon="4.81342">
        <ele>134</ele>
        <time>2013-04-23T15:12:23Z</time>
      </trkpt>
      <trkpt lat="45.20615" lon="4.8135">
        <ele>134</ele>
        <time>2013-04-23T15:12:25Z</time>
      </trkpt>
      <trkpt lat="45.20593" lon="4.81355">
        <ele>134</ele>
        <time>2013-04-23T15:12:29Z</time>
      </trkpt>
      <trkpt lat="45.20572" lon="4.81361">
        <ele>134</ele>
        <time>2013-04-23T15:12:33Z</time>
      </trkpt>
      <trkpt lat="45.20564" lon="4.81371">
        <ele>134</ele>
        <time>2013-04-23T15:12:35Z</time>
      </trkpt>
      <trkpt lat="45.20559" lon="4.8138">
        <ele>134</ele>
        <time>2013-04-23T15:12:37Z</time>
      </trkpt>
      <trkpt lat="45.20553" lon="4.81386">
        <ele>134</ele>
        <time>2013-04-23T15:12:39Z</time>
      </trkpt>
      <trkpt lat="45.20535" lon="4.8139">
        <ele>134</ele>
        <time>2013-04-23T15:12:43Z</time>
      </trkpt>
      <trkpt lat="45.20496" lon="4.81393">
        <ele>134</ele>
        <time>2013-04-23T15:12:50Z</time>
      </trkpt>
      <trkpt lat="45.20459" lon="4.81392">
        <ele>134</ele>
        <time>2013-04-23T15:12:57Z</time>
      </trkpt>
      <trkpt lat="45.20428" lon="4.81392">
        <ele>134</ele>
        <time>2013-04-23T15:13:03Z</time>
      </trkpt>
      <trkpt lat="45.20423" lon="4.81392">
        <ele>134</ele>
        <time>2013-04-23T15:13:04Z</time>
      </trkpt>
      <trkpt lat="45.20385" lon="4.81391">
        <ele>134</ele>
        <time>2013-04-23T15:13:12Z</time>
      </trkpt>
      <trkpt lat="45.20358" lon="4.81394">
        <ele>134</ele>
        <time>2013-04-23T15:13:19Z</time>
      </trkpt>
      <trkpt lat="45.20336" lon="4.81394">
        <ele>134</ele>
        <time>2013-04-23T15:13:26Z</time>
      </trkpt>
      <trkpt lat="45.20322" lon="4.8139">
        <ele>134</ele>
        <time>2013-04-23T15:13:34Z</time>
      </trkpt>
      <trkpt lat="45.20313" lon="4.81386">
        <ele>134</ele>
        <time>2013-04-23T15:14:03Z</time>
      </trkpt>
      <trkpt lat="45.20298" lon="4.81379">
        <ele>134</ele>
        <time>2013-04-23T15:14:09Z</time>
      </trkpt>
      <trkpt lat="45.20281" lon="4.81369">
        <ele>134</ele>
        <time>2013-04-23T15:14:15Z</time>
      </trkpt>
      <trkpt lat="45.20258" lon="4.81352">
        <ele>134</ele>
        <time>2013-04-23T15:14:22Z</time>
      </trkpt>
      <trkpt lat="45.20226" lon="4.81336">
        <ele>134</ele>
        <time>2013-04-23T15:14:30Z</time>
      </trkpt>
      <trkpt lat="45.20212" lon="4.81323">
        <ele>134</ele>
        <time>2013-04-23T15:14:34Z</time>
      </trkpt>
      <trkpt lat="45.20187" lon="4.813">
        <ele>134</ele>
        <time>2013-04-23T15:14:41Z</time>
      </trkpt>
      <trkpt lat="45.20168" lon="4.81276">
        <ele>134</ele>
        <time>2013-04-23T15:14:47Z</time>
      </trkpt>
      <trkpt lat="45.20144" lon="4.81242">
        <ele>134</ele>
        <time>2013-04-23T15:14:54Z</time>
      </trkpt>
      <trkpt lat="45.20116" lon="4.81202">
        <ele>134</ele>
        <time>2013-04-23T15:15:02Z</time>
      </trkpt>
      <trkpt lat="45.20093" lon="4.81163">
        <ele>134</ele>
        <time>2013-04-23T15:15:09Z</time>
      </trkpt>
      <trkpt lat="45.20063" lon="4.81105">
        <ele>134</ele>
        <time>2013-04-23T15:15:18Z</time>
      </trkpt>
      <trkpt lat="45.20041" lon="4.81059">
        <ele>134</ele>
        <time>2013-04-23T15:15:25Z</time>
      </trkpt>
      <trkpt lat="45.20014" lon="4.81006">
        <ele>134</ele>
        <time>2013-04-23T15:15:33Z</time>
      </trkpt>
      <trkpt lat="45.19991" lon="4.80965">
        <ele>134</ele>
        <time>2013-04-23T15:15:40Z</time>
      </trkpt>
      <trkpt lat="45.19958" lon="4.80915">
        <ele>134</ele>
        <time>2013-04-23T15:15:49Z</time>
      </trkpt>
      <trkpt lat="45.19929" lon="4.80883">
        <ele>134</ele>
        <time>2013-04-23T15:15:55Z</time>
      </trkpt>
      <trkpt lat="45.19895" lon="4.80843">
        <ele>134</ele>
        <time>2013-04-23T15:16:02Z</time>
      </trkpt>
      <trkpt lat="45.19863" lon="4.80805">
        <ele>134</ele>
        <time>2013-04-23T15:16:09Z</time>
      </trkpt>
      <trkpt lat="45.19854" lon="4.80799">
        <ele>134</ele>
        <time>2013-04-23T15:16:11Z</time>
      </trkpt>
      <trkpt lat="45.19841" lon="4.80793">
        <ele>134</ele>
        <time>2013-04-23T15:16:14Z</time>
      </trkpt>
      <trkpt lat="45.19828" lon="4.80788">
        <ele>134</ele>
        <time>2013-04-23T15:16:17Z</time>
      </trkpt>
      <trkpt lat="45.1981" lon="4.80785">
        <ele>134</ele>
        <time>2013-04-23T15:16:21Z</time>
      </trkpt>
      <trkpt lat="45.19782" lon="4.80784">
        <ele>134</ele>
        <time>2013-04-23T15:16:27Z</time>
      </trkpt>
      <trkpt lat="45.19774" lon="4.80784">
        <ele>134</ele>
        <time>2013-04-23T15:16:29Z</time>
      </trkpt>
      <trkpt lat="45.19756" lon="4.80783">
        <ele>134</ele>
        <time>2013-04-23T15:16:33Z</time>
      </trkpt>
      <trkpt lat="45.19737" lon="4.80779">
        <ele>134</ele>
        <time>2013-04-23T15:16:37Z</time>
      </trkpt>
      <trkpt lat="45.19727" lon="4.80776">
        <ele>134</ele>
        <time>2013-04-23T15:16:39Z</time>
      </trkpt>
      <trkpt lat="45.19705" lon="4.8077">
        <ele>134</ele>
        <time>2013-04-23T15:16:44Z</time>
      </trkpt>
      <trkpt lat="45.19701" lon="4.80771">
        <ele>134</ele>
        <time>2013-04-23T15:16:45Z</time>
      </trkpt>
      <trkpt lat="45.19696" lon="4.8077">
        <ele>134</ele>
        <time>2013-04-23T15:16:46Z</time>
      </trkpt>
      <trkpt lat="45.19674" lon="4.80768">
        <ele>134</ele>
        <time>2013-04-23T15:16:50Z</time>
      </trkpt>
      <trkpt lat="45.19621" lon="4.80763">
        <ele>134</ele>
        <time>2013-04-23T15:16:59Z</time>
      </trkpt>
      <trkpt lat="45.19569" lon="4.80764">
        <ele>134</ele>
        <time>2013-04-23T15:17:07Z</time>
      </trkpt>
      <trkpt lat="45.19522" lon="4.80767">
        <ele>134</ele>
        <time>2013-04-23T15:17:15Z</time>
      </trkpt>
      <trkpt lat="45.195" lon="4.80767">
        <ele>134</ele>
        <time>2013-04-23T15:17:20Z</time>
      </trkpt>
      <trkpt lat="45.19499" lon="4.80767">
        <ele>134</ele>
        <time>2013-04-23T15:17:24Z</time>
      </trkpt>
      <trkpt lat="45.19499" lon="4.80767">
        <ele>134</ele>
        <time>2013-04-23T15:17:36Z</time>
      </trkpt>
      <trkpt lat="45.19499" lon="4.80767">
        <ele>134</ele>
        <time>2013-04-23T15:17:51Z</time>
      </trkpt>
      <trkpt lat="45.19499" lon="4.80767">
        <ele>134</ele>
        <time>2013-04-23T15:18:08Z</time>
      </trkpt>
      <trkpt lat="45.19495" lon="4.80764">
        <ele>134</ele>
        <time>2013-04-23T15:18:13Z</time>
      </trkpt>
      <trkpt lat="45.19478" lon="4.80757">
        <ele>134</ele>
        <time>2013-04-23T15:18:18Z</time>
      </trkpt>
      <trkpt lat="45.19465" lon="4.80756">
        <ele>134</ele>
        <time>2013-04-23T15:18:21Z</time>
      </trkpt>
      <trkpt lat="45.19456" lon="4.80758">
        <ele>134</ele>
        <time>2013-04-23T15:18:23Z</time>
      </trkpt>
      <trkpt lat="45.19417" lon="4.80768">
        <ele>134</ele>
        <time>2013-04-23T15:18:31Z</time>
      </trkpt>
      <trkpt lat="45.19378" lon="4.80781">
        <ele>134</ele>
        <time>2013-04-23T15:18:39Z</time>
      </trkpt>
      <trkpt lat="45.19339" lon="4.808">
        <ele>134</ele>
        <time>2013-04-23T15:18:47Z</time>
      </trkpt>
      <trkpt lat="45.19298" lon="4.80824">
        <ele>134</ele>
        <time>2013-04-23T15:18:56Z</time>
      </trkpt>
      <trkpt lat="45.19265" lon="4.80849">
        <ele>134</ele>
        <time>2013-04-23T15:19:03Z</time>
      </trkpt>
      <trkpt lat="45.19237" lon="4.80868">
        <ele>134</ele>
        <time>2013-04-23T15:19:09Z</time>
      </trkpt>
      <trkpt lat="45.19207" lon="4.80887">
        <ele>134</ele>
        <time>2013-04-23T15:19:16Z</time>
      </trkpt>
      <trkpt lat="45.19169" lon="4.80915">
        <ele>134</ele>
        <time>2013-04-23T15:19:24Z</time>
      </trkpt>
      <trkpt lat="45.19129" lon="4.80943">
        <ele>134</ele>
        <time>2013-04-23T15:19:32Z</time>
      </trkpt>
      <trkpt lat="45.19087" lon="4.80971">
        <ele>134</ele>
        <time>2013-04-23T15:19:40Z</time>
      </trkpt>
      <trkpt lat="45.19041" lon="4.81003">
        <ele>134</ele>
        <time>2013-04-23T15:19:49Z</time>
      </trkpt>
      <trkpt lat="45.19006" lon="4.81028">
        <ele>134</ele>
        <time>2013-04-23T15:19:56Z</time>
      </trkpt>
      <trkpt lat="45.1898" lon="4.81045">
        <ele>134</ele>
        <time>2013-04-23T15:20:02Z</time>
      </trkpt>
      <trkpt lat="45.18934" lon="4.81077">
        <ele>134</ele>
        <time>2013-04-23T15:20:12Z</time>
      </trkpt>
      <trkpt lat="45.18902" lon="4.81099">
        <ele>134</ele>
        <time>2013-04-23T15:20:19Z</time>
      </trkpt>
      <trkpt lat="45.1886" lon="4.81127">
        <ele>134</ele>
        <time>2013-04-23T15:20:28Z</time>
      </trkpt>
      <trkpt lat="45.18828" lon="4.81147">
        <ele>134</ele>
        <time>2013-04-23T15:20:36Z</time>
      </trkpt>
      <trkpt lat="45.18798" lon="4.81163">
        <ele>134</ele>
        <time>2013-04-23T15:20:43Z</time>
      </trkpt>
      <trkpt lat="45.18763" lon="4.81183">
        <ele>134</ele>
        <time>2013-04-23T15:20:52Z</time>
      </trkpt>
      <trkpt lat="45.18739" lon="4.81196">
        <ele>134</ele>
        <time>2013-04-23T15:20:59Z</time>
      </trkpt>
      <trkpt lat="45.18712" lon="4.8121">
        <ele>134</ele>
        <time>2013-04-23T15:21:07Z</time>
      </trkpt>
      <trkpt lat="45.18693" lon="4.8122">
        <ele>134</ele>
        <time>2013-04-23T15:21:14Z</time>
      </trkpt>
      <trkpt lat="45.18692" lon="4.81221">
        <ele>134</ele>
        <time>2013-04-23T15:21:18Z</time>
      </trkpt>
      <trkpt lat="45.18692" lon="4.81221">
        <ele>134</ele>
        <time>2013-04-23T15:21:32Z</time>
      </trkpt>
      <trkpt lat="45.18692" lon="4.81221">
        <ele>134</ele>
        <time>2013-04-23T15:21:45Z</time>
      </trkpt>
      <trkpt lat="45.18692" lon="4.81221">
        <ele>134</ele>
        <time>2013-04-23T15:21:57Z</time>
      </trkpt>
      <trkpt lat="45.18692" lon="4.81221">
        <ele>134</ele>
        <time>2013-04-23T15:22:12Z</time>
      </trkpt>
      <trkpt lat="45.18691" lon="4.81221">
        <ele>134</ele>
        <time>2013-04-23T15:22:20Z</time>
      </trkpt>
      <trkpt lat="45.18686" lon="4.81226">
        <ele>134</ele>
        <time>2013-04-23T15:22:26Z</time>
      </trkpt>
      <trkpt lat="45.18686" lon="4.81226">
        <ele>134</ele>
        <time>2013-04-23T15:22:37Z</time>
      </trkpt>
      <trkpt lat="45.18686" lon="4.81226">
        <ele>134</ele>
        <time>2013-04-23T15:22:48Z</time>
      </trkpt>
      <trkpt lat="45.18686" lon="4.81226">
        <ele>134</ele>
        <time>2013-04-23T15:22:58Z</time>
      </trkpt>
      <trkpt lat="45.18686" lon="4.81226">
        <ele>134</ele>
        <time>2013-04-23T15:23:12Z</time>
      </trkpt>
      <trkpt lat="45.18686" lon="4.81226">
        <ele>134</ele>
        <time>2013-04-23T15:23:22Z</time>
      </trkpt>
      <trkpt lat="45.18686" lon="4.81226">
        <ele>134</ele>
        <time>2013-04-23T15:23:36Z</time>
      </trkpt>
      <trkpt lat="45.18686" lon="4.81226">
        <ele>134</ele>
        <time>2013-04-23T15:23:49Z</time>
      </trkpt>
      <trkpt lat="45.18434" lon="4.81352">
        <ele>130.9</ele>
      </trkpt>
      <trkpt lat="45.18416" lon="4.8125">
        <ele>128</ele>
      </trkpt>
      <trkpt lat="45.18391" lon="4.8112">
        <ele>128</ele>
      </trkpt>
      <trkpt lat="45.18381" lon="4.81065">
        <ele>131</ele>
      </trkpt>
      <trkpt lat="45.18378" lon="4.81051">
        <ele>131.2</ele>
      </trkpt>
      <trkpt lat="45.18362" lon="4.8095">
        <ele>134</ele>
      </trkpt>
      <trkpt lat="45.18358" lon="4.80941">
        <ele>133.6</ele>
      </trkpt>
      <trkpt lat="45.18355" lon="4.80934">
        <ele>133</ele>
      </trkpt>
      <trkpt lat="45.1835" lon="4.80932">
        <ele>132.5</ele>
      </trkpt>
      <trkpt lat="45.18344" lon="4.8093">
        <ele>131.9</ele>
      </trkpt>
      <trkpt lat="45.18339" lon="4.80931">
        <ele>131.5</ele>
      </trkpt>
      <trkpt lat="45.18332" lon="4.80937">
        <ele>130.8</ele>
      </trkpt>
      <trkpt lat="45.1832" lon="4.80964">
        <ele>130.2</ele>
      </trkpt>
      <trkpt lat="45.18305" lon="4.81007">
        <ele>130.9</ele>
      </trkpt>
      <trkpt lat="45.183" lon="4.81041">
        <ele>130.5</ele>
      </trkpt>
      <trkpt lat="45.18302" lon="4.81077">
        <ele>130.7</ele>
      </trkpt>
      <trkpt lat="45.18303" lon="4.81102">
        <ele>130.8</ele>
      </trkpt>
      <trkpt lat="45.18304" lon="4.81112">
        <ele>130.8</ele>
      </trkpt>
      <trkpt lat="45.18302" lon="4.81117">
        <ele>130.4</ele>
      </trkpt>
      <trkpt lat="45.18302" lon="4.81117">
        <ele>130.4</ele>
      </trkpt>
      <trkpt lat="45.18298" lon="4.81119">
        <ele>130.1</ele>
      </trkpt>
      <trkpt lat="45.18276" lon="4.81122">
        <ele>129</ele>
      </trkpt>
      <trkpt lat="45.18239" lon="4.81122">
        <ele>129.2</ele>
      </trkpt>
      <trkpt lat="45.18201" lon="4.81121">
        <ele>129.4</ele>
      </trkpt>
      <trkpt lat="45.18164" lon="4.81116">
        <ele>129.6</ele>
      </trkpt>
      <trkpt lat="45.18118" lon="4.81108">
        <ele>130.3</ele>
      </trkpt>
      <trkpt lat="45.18071" lon="4.81096">
        <ele>129</ele>
      </trkpt>
      <trkpt lat="45.18009" lon="4.81075">
        <ele>129.2</ele>
      </trkpt>
      <trkpt lat="45.17951" lon="4.8105">
        <ele>129.5</ele>
      </trkpt>
      <trkpt lat="45.17899" lon="4.81022">
        <ele>129.4</ele>
      </trkpt>
      <trkpt lat="45.17794" lon="4.80966">
        <ele>129.2</ele>
      </trkpt>
      <trkpt lat="45.17576" lon="4.80847">
        <ele>128.6</ele>
      </trkpt>
      <trkpt lat="45.17474" lon="4.80792">
        <ele>128.5</ele>
      </trkpt>
      <trkpt lat="45.17429" lon="4.80766">
        <ele>128.9</ele>
      </trkpt>
      <trkpt lat="45.17361" lon="4.8073">
        <ele>129.7</ele>
      </trkpt>
      <trkpt lat="45.17294" lon="4.80696">
        <ele>129.3</ele>
      </trkpt>
      <trkpt lat="45.17241" lon="4.80672">
        <ele>128.6</ele>
      </trkpt>
      <trkpt lat="45.17153" lon="4.80644">
        <ele>129.3</ele>
      </trkpt>
      <trkpt lat="45.17065" lon="4.80627">
        <ele>129</ele>
      </trkpt>
      <trkpt lat="45.17015" lon="4.80617">
        <ele>129.6</ele>
      </trkpt>
      <trkpt lat="45.1699" lon="4.80616">
        <ele>130.5</ele>
      </trkpt>
      <trkpt lat="45.16972" lon="4.8062">
        <ele>131.4</ele>
      </trkpt>
      <trkpt lat="45.16956" lon="4.80626">
        <ele>133</ele>
      </trkpt>
      <trkpt lat="45.16934" lon="4.80629">
        <ele>133.2</ele>
      </trkpt>
      <trkpt lat="45.16923" lon="4.80623">
        <ele>133.8</ele>
      </trkpt>
      <trkpt lat="45.16911" lon="4.80615">
        <ele>135.1</ele>
      </trkpt>
      <trkpt lat="45.16895" lon="4.80623">
        <ele>137.9</ele>
      </trkpt>
      <trkpt lat="45.16875" lon="4.80635">
        <ele>139.6</ele>
      </trkpt>
      <trkpt lat="45.16879" lon="4.80624">
        <ele>140.3</ele>
      </trkpt>
      <trkpt lat="45.1689" lon="4.80614">
        <ele>140.4</ele>
      </trkpt>
      <trkpt lat="45.16905" lon="4.80605">
        <ele>137.9</ele>
      </trkpt>
      <trkpt lat="45.16908" lon="4.80599">
        <ele>138.2</ele>
      </trkpt>
      <trkpt lat="45.16899" lon="4.80599">
        <ele>140</ele>
      </trkpt>
      <trkpt lat="45.16889" lon="4.80604">
        <ele>141.7</ele>
      </trkpt>
      <trkpt lat="45.16876" lon="4.80616">
        <ele>141.8</ele>
      </trkpt>
      <trkpt lat="45.16865" lon="4.80627">
        <ele>141.8</ele>
      </trkpt>
      <trkpt lat="45.16856" lon="4.80641">
        <ele>140.7</ele>
      </trkpt>
      <trkpt lat="45.1684" lon="4.80649">
        <ele>140</ele>
      </trkpt>
      <trkpt lat="45.16829" lon="4.8065">
        <ele>140.9</ele>
      </trkpt>
      <trkpt lat="45.16816" lon="4.80651">
        <ele>141.8</ele>
      </trkpt>
      <trkpt lat="45.16781" lon="4.80672">
        <ele>142</ele>
      </trkpt>
      <trkpt lat="45.16741" lon="4.80702">
        <ele>141</ele>
      </trkpt>
      <trkpt lat="45.16693" lon="4.80733">
        <ele>141.5</ele>
      </trkpt>
      <trkpt lat="45.16668" lon="4.80752">
        <ele>141.7</ele>
      </trkpt>
      <trkpt lat="45.16621" lon="4.80785">
        <ele>140.2</ele>
      </trkpt>
      <trkpt lat="45.16527" lon="4.80854">
        <ele>139.4</ele>
      </trkpt>
      <trkpt lat="45.1643" lon="4.80923">
        <ele>136.2</ele>
      </trkpt>
      <trkpt lat="45.16376" lon="4.80955">
        <ele>138.1</ele>
      </trkpt>
      <trkpt lat="45.16332" lon="4.80981">
        <ele>138.7</ele>
      </trkpt>
      <trkpt lat="45.16299" lon="4.81003">
        <ele>137.5</ele>
      </trkpt>
      <trkpt lat="45.16272" lon="4.81026">
        <ele>137.1</ele>
      </trkpt>
      <trkpt lat="45.16252" lon="4.81046">
        <ele>136.1</ele>
      </trkpt>
      <trkpt lat="45.16239" lon="4.81063">
        <ele>135.4</ele>
      </trkpt>
      <trkpt lat="45.16225" lon="4.81086">
        <ele>134.9</ele>
      </trkpt>
      <trkpt lat="45.1621" lon="4.81102">
        <ele>133.3</ele>
      </trkpt>
      <trkpt lat="45.1619" lon="4.81112">
        <ele>135.9</ele>
      </trkpt>
      <trkpt lat="45.16173" lon="4.81125">
        <ele>135.7</ele>
      </trkpt>
      <trkpt lat="45.16157" lon="4.81138">
        <ele>137</ele>
      </trkpt>
      <trkpt lat="45.16139" lon="4.81164">
        <ele>136</ele>
      </trkpt>
      <trkpt lat="45.16117" lon="4.81198">
        <ele>135.4</ele>
      </trkpt>
      <trkpt lat="45.16065" lon="4.81288">
        <ele>136.3</ele>
      </trkpt>
      <trkpt lat="45.16039" lon="4.81348">
        <ele>136.4</ele>
      </trkpt>
      <trkpt lat="45.16036" lon="4.81365">
        <ele>136.2</ele>
      </trkpt>
      <trkpt lat="45.16031" lon="4.81401">
        <ele>134.9</ele>
      </trkpt>
      <trkpt lat="45.16022" lon="4.81428">
        <ele>134.9</ele>
      </trkpt>
      <trkpt lat="45.15949" lon="4.81616">
        <ele>127.8</ele>
      </trkpt>
      <trkpt lat="45.15927" lon="4.81676">
        <ele>128</ele>
      </trkpt>
      <trkpt lat="45.15923" lon="4.81692">
        <ele>128</ele>
      </trkpt>
      <trkpt lat="45.15922" lon="4.81708">
        <ele>127.9</ele>
      </trkpt>
      <trkpt lat="45.15926" lon="4.8173">
        <ele>127.5</ele>
      </trkpt>
      <trkpt lat="45.15932" lon="4.8175">
        <ele>127</ele>
      </trkpt>
      <trkpt lat="45.15933" lon="4.8177">
        <ele>126.6</ele>
      </trkpt>
      <trkpt lat="45.15933" lon="4.81794">
        <ele>125.7</ele>
      </trkpt>
      <trkpt lat="45.15924" lon="4.81845">
        <ele>125.2</ele>
      </trkpt>
      <trkpt lat="45.15913" lon="4.81937">
        <ele>125.9</ele>
      </trkpt>
      <trkpt lat="45.15905" lon="4.81994">
        <ele>126.2</ele>
      </trkpt>
      <trkpt lat="45.15896" lon="4.82055">
        <ele>125.3</ele>
      </trkpt>
      <trkpt lat="45.15873" lon="4.82158">
        <ele>124.3</ele>
      </trkpt>
      <trkpt lat="45.15861" lon="4.82204">
        <ele>125.7</ele>
      </trkpt>
      <trkpt lat="45.1585" lon="4.82242">
        <ele>124.6</ele>
      </trkpt>
      <trkpt lat="45.15817" lon="4.82325">
        <ele>124.8</ele>
      </trkpt>
      <trkpt lat="45.15801" lon="4.82357">
        <ele>125.3</ele>
      </trkpt>
      <trkpt lat="45.15785" lon="4.82382">
        <ele>124.8</ele>
      </trkpt>
      <trkpt lat="45.1577" lon="4.82401">
        <ele>124.5</ele>
      </trkpt>
      <trkpt lat="45.15737" lon="4.82441">
        <ele>124.8</ele>
      </trkpt>
      <trkpt lat="45.15665" lon="4.82488">
        <ele>125.4</ele>
      </trkpt>
      <trkpt lat="45.15601" lon="4.82507">
        <ele>124.8</ele>
      </trkpt>
      <trkpt lat="45.15523" lon="4.82513">
        <ele>124.2</ele>
      </trkpt>
      <trkpt lat="45.15448" lon="4.82499">
        <ele>125.1</ele>
      </trkpt>
      <trkpt lat="45.1537" lon="4.82468">
        <ele>124.5</ele>
      </trkpt>
      <trkpt lat="45.15312" lon="4.82427">
        <ele>124.3</ele>
      </trkpt>
      <trkpt lat="45.15245" lon="4.82372">
        <ele>124.1</ele>
      </trkpt>
      <trkpt lat="45.1517" lon="4.8231">
        <ele>123.7</ele>
      </trkpt>
      <trkpt lat="45.15053" lon="4.82212">
        <ele>123.9</ele>
      </trkpt>
      <trkpt lat="45.14988" lon="4.82154">
        <ele>123.8</ele>
      </trkpt>
      <trkpt lat="45.1496" lon="4.82129">
        <ele>123.8</ele>
      </trkpt>
      <trkpt lat="45.14939" lon="4.8211">
        <ele>124.5</ele>
      </trkpt>
      <trkpt lat="45.14908" lon="4.82085">
        <ele>124</ele>
      </trkpt>
      <trkpt lat="45.14859" lon="4.8204">
        <ele>124.6</ele>
      </trkpt>
      <trkpt lat="45.14779" lon="4.81962">
        <ele>124.2</ele>
      </trkpt>
      <trkpt lat="45.14665" lon="4.81845">
        <ele>124.3</ele>
      </trkpt>
      <trkpt lat="45.14555" lon="4.81736">
        <ele>123</ele>
      </trkpt>
      <trkpt lat="45.14471" lon="4.81646">
        <ele>124.2</ele>
      </trkpt>
      <trkpt lat="45.14422" lon="4.81599">
        <ele>124</ele>
      </trkpt>
      <trkpt lat="45.14342" lon="4.8152">
        <ele>123.4</ele>
      </trkpt>
      <trkpt lat="45.14241" lon="4.81412">
        <ele>123.9</ele>
      </trkpt>
      <trkpt lat="45.14193" lon="4.81351">
        <ele>125.6</ele>
      </trkpt>
      <trkpt lat="45.14171" lon="4.81328">
        <ele>121.2</ele>
      </trkpt>
      <trkpt lat="45.14158" lon="4.81297">
        <ele>121.5</ele>
      </trkpt>
      <trkpt lat="45.1415" lon="4.81276">
        <ele>121.1</ele>
      </trkpt>
      <trkpt lat="45.14149" lon="4.81264">
        <ele>121.6</ele>
      </trkpt>
      <trkpt lat="45.1414" lon="4.8125">
        <ele>122.9</ele>
      </trkpt>
      <trkpt lat="45.14129" lon="4.81246">
        <ele>125.2</ele>
      </trkpt>
      <trkpt lat="45.14108" lon="4.81245">
        <ele>126.9</ele>
      </trkpt>
      <trkpt lat="45.14092" lon="4.81228">
        <ele>127.6</ele>
      </trkpt>
      <trkpt lat="45.14076" lon="4.8121">
        <ele>128</ele>
      </trkpt>
      <trkpt lat="45.14029" lon="4.81146">
        <ele>127.6</ele>
      </trkpt>
      <trkpt lat="45.13986" lon="4.81087">
        <ele>127.7</ele>
      </trkpt>
      <trkpt lat="45.13948" lon="4.8103">
        <ele>127.3</ele>
      </trkpt>
      <trkpt lat="45.13909" lon="4.80971">
        <ele>126.5</ele>
      </trkpt>
      <trkpt lat="45.13876" lon="4.80914">
        <ele>125.9</ele>
      </trkpt>
      <trkpt lat="45.13869" lon="4.809">
        <ele>125.9</ele>
      </trkpt>
      <trkpt lat="45.13864" lon="4.80878">
        <ele>127.4</ele>
      </trkpt>
      <trkpt lat="45.13866" lon="4.80864">
        <ele>127.9</ele>
      </trkpt>
      <trkpt lat="45.13866" lon="4.80855">
        <ele>128</ele>
      </trkpt>
      <trkpt lat="45.13863" lon="4.80848">
        <ele>128</ele>
      </trkpt>
      <trkpt lat="45.13855" lon="4.80828">
        <ele>128</ele>
      </trkpt>
      <trkpt lat="45.1384" lon="4.80794">
        <ele>127.3</ele>
      </trkpt>
      <trkpt lat="45.13823" lon="4.80752">
        <ele>127.9</ele>
      </trkpt>
      <trkpt lat="45.13809" lon="4.80717">
        <ele>127.7</ele>
      </trkpt>
      <trkpt lat="45.13797" lon="4.80692">
        <ele>127.3</ele>
      </trkpt>
      <trkpt lat="45.13785" lon="4.80679">
        <ele>127.7</ele>
      </trkpt>
      <trkpt lat="45.13766" lon="4.80657">
        <ele>126.8</ele>
      </trkpt>
      <trkpt lat="45.1373" lon="4.80584">
        <ele>126.2</ele>
      </trkpt>
      <trkpt lat="45.13688" lon="4.80508">
        <ele>126</ele>
      </trkpt>
      <trkpt lat="45.13634" lon="4.80443">
        <ele>125.7</ele>
      </trkpt>
      <trkpt lat="45.13582" lon="4.804">
        <ele>125.5</ele>
      </trkpt>
      <trkpt lat="45.1355" lon="4.8038">
        <ele>125.6</ele>
      </trkpt>
      <trkpt lat="45.13528" lon="4.80362">
        <ele>125.9</ele>
      </trkpt>
      <trkpt lat="45.13508" lon="4.80332">
        <ele>126</ele>
      </trkpt>
      <trkpt lat="45.13495" lon="4.80314">
        <ele>125.9</ele>
      </trkpt>
      <trkpt lat="45.13483" lon="4.80305">
        <ele>125.4</ele>
      </trkpt>
      <trkpt lat="45.13456" lon="4.80295">
        <ele>126.4</ele>
      </trkpt>
      <trkpt lat="45.13424" lon="4.80296">
        <ele>127</ele>
      </trkpt>
      <trkpt lat="45.1341" lon="4.80286">
        <ele>126.9</ele>
      </trkpt>
      <trkpt lat="45.13393" lon="4.80274">
        <ele>127.1</ele>
      </trkpt>
      <trkpt lat="45.13376" lon="4.80269">
        <ele>126.9</ele>
      </trkpt>
      <trkpt lat="45.13361" lon="4.80268">
        <ele>126.4</ele>
      </trkpt>
      <trkpt lat="45.13324" lon="4.80268">
        <ele>126.8</ele>
      </trkpt>
      <trkpt lat="45.13288" lon="4.80259">
        <ele>126.7</ele>
      </trkpt>
      <trkpt lat="45.13242" lon="4.80256">
        <ele>126.8</ele>
      </trkpt>
      <trkpt lat="45.13208" lon="4.80248">
        <ele>124.7</ele>
      </trkpt>
      <trkpt lat="45.13186" lon="4.80245">
        <ele>124</ele>
      </trkpt>
      <trkpt lat="45.13169" lon="4.80246">
        <ele>126</ele>
      </trkpt>
      <trkpt lat="45.13155" lon="4.8025">
        <ele>126</ele>
      </trkpt>
      <trkpt lat="45.13139" lon="4.8025">
        <ele>126</ele>
      </trkpt>
      <trkpt lat="45.13114" lon="4.80245">
        <ele>126.2</ele>
      </trkpt>
      <trkpt lat="45.13012" lon="4.80227">
        <ele>126.3</ele>
      </trkpt>
      <trkpt lat="45.12934" lon="4.80212">
        <ele>125.7</ele>
      </trkpt>
      <trkpt lat="45.12861" lon="4.80198">
        <ele>126.4</ele>
      </trkpt>
      <trkpt lat="45.12838" lon="4.80187">
        <ele>126.4</ele>
      </trkpt>
      <trkpt lat="45.12813" lon="4.8018">
        <ele>126.2</ele>
      </trkpt>
      <trkpt lat="45.12787" lon="4.80176">
        <ele>126.1</ele>
      </trkpt>
      <trkpt lat="45.12757" lon="4.8017">
        <ele>125.9</ele>
      </trkpt>
      <trkpt lat="45.12724" lon="4.80167">
        <ele>126.8</ele>
      </trkpt>
      <trkpt lat="45.12703" lon="4.8017">
        <ele>126.3</ele>
      </trkpt>
      <trkpt lat="45.12679" lon="4.80167">
        <ele>126.4</ele>
      </trkpt>
      <trkpt lat="45.12628" lon="4.80152">
        <ele>126.2</ele>
      </trkpt>
      <trkpt lat="45.12544" lon="4.80137">
        <ele>126.7</ele>
      </trkpt>
      <trkpt lat="45.12509" lon="4.80141">
        <ele>125.1</ele>
      </trkpt>
      <trkpt lat="45.12499" lon="4.80137">
        <ele>125.1</ele>
      </trkpt>
      <trkpt lat="45.12484" lon="4.80126">
        <ele>125.9</ele>
      </trkpt>
      <trkpt lat="45.12441" lon="4.80115">
        <ele>125.8</ele>
      </trkpt>
      <trkpt lat="45.12422" lon="4.80107">
        <ele>125.5</ele>
      </trkpt>
      <trkpt lat="45.12407" lon="4.80104">
        <ele>125.5</ele>
      </trkpt>
      <trkpt lat="45.12385" lon="4.80106">
        <ele>125.5</ele>
      </trkpt>
      <trkpt lat="45.12363" lon="4.80099">
        <ele>126.4</ele>
      </trkpt>
      <trkpt lat="45.12326" lon="4.80094">
        <ele>126.6</ele>
      </trkpt>
      <trkpt lat="45.12299" lon="4.80095">
        <ele>126.7</ele>
      </trkpt>
      <trkpt lat="45.12233" lon="4.80104">
        <ele>127.6</ele>
      </trkpt>
      <trkpt lat="45.12209" lon="4.80116">
        <ele>127.4</ele>
      </trkpt>
      <trkpt lat="45.122" lon="4.8012">
        <ele>127.1</ele>
      </trkpt>
      <trkpt lat="45.1218" lon="4.80121">
        <ele>126.8</ele>
      </trkpt>
      <trkpt lat="45.12164" lon="4.80127">
        <ele>126.1</ele>
      </trkpt>
      <trkpt lat="45.1215" lon="4.80145">
        <ele>123.2</ele>
      </trkpt>
      <trkpt lat="45.12131" lon="4.80154">
        <ele>122.5</ele>
      </trkpt>
      <trkpt lat="45.12113" lon="4.80156">
        <ele>124.6</ele>
      </trkpt>
      <trkpt lat="45.12099" lon="4.80165">
        <ele>125</ele>
      </trkpt>
      <trkpt lat="45.12087" lon="4.80173">
        <ele>125.3</ele>
      </trkpt>
      <trkpt lat="45.12087" lon="4.80173">
        <ele>125.3</ele>
      </trkpt>
      <trkpt lat="45.12077" lon="4.80204">
        <ele>123.9</ele>
      </trkpt>
      <trkpt lat="45.12071" lon="4.80225">
        <ele>123.5</ele>
      </trkpt>
      <trkpt lat="45.12061" lon="4.80266">
        <ele>123.8</ele>
      </trkpt>
      <trkpt lat="45.12051" lon="4.80323">
        <ele>122.5</ele>
      </trkpt>
      <trkpt lat="45.12051" lon="4.80344">
        <ele>122.1</ele>
      </trkpt>
      <trkpt lat="45.12046" lon="4.80365">
        <ele>122</ele>
      </trkpt>
      <trkpt lat="45.1202" lon="4.80399">
        <ele>122</ele>
      </trkpt>
      <trkpt lat="45.11999" lon="4.80431">
        <ele>122.5</ele>
      </trkpt>
      <trkpt lat="45.11983" lon="4.80462">
        <ele>121.9</ele>
      </trkpt>
      <trkpt lat="45.11958" lon="4.80492">
        <ele>122</ele>
      </trkpt>
      <trkpt lat="45.1192" lon="4.80539">
        <ele>121.8</ele>
      </trkpt>
      <trkpt lat="45.11856" lon="4.80601">
        <ele>121.5</ele>
      </trkpt>
      <trkpt lat="45.11806" lon="4.80645">
        <ele>121.3</ele>
      </trkpt>
      <trkpt lat="45.11775" lon="4.80663">
        <ele>122</ele>
      </trkpt>
      <trkpt lat="45.11658" lon="4.80748">
        <ele>122</ele>
      </trkpt>
      <trkpt lat="45.11616" lon="4.80779">
        <ele>121.4</ele>
      </trkpt>
      <trkpt lat="45.11583" lon="4.80809">
        <ele>122</ele>
      </trkpt>
      <trkpt lat="45.1156" lon="4.80833">
        <ele>122</ele>
      </trkpt>
      <trkpt lat="45.11491" lon="4.8089">
        <ele>121.9</ele>
      </trkpt>
      <trkpt lat="45.11438" lon="4.80938">
        <ele>122</ele>
      </trkpt>
      <trkpt lat="45.11409" lon="4.80962">
        <ele>122</ele>
      </trkpt>
      <trkpt lat="45.11382" lon="4.80986">
        <ele>122</ele>
      </trkpt>
      <trkpt lat="45.11373" lon="4.80997">
        <ele>122</ele>
      </trkpt>
      <trkpt lat="45.1136" lon="4.81014">
        <ele>122</ele>
      </trkpt>
      <trkpt lat="45.11347" lon="4.81034">
        <ele>122</ele>
      </trkpt>
      <trkpt lat="45.11331" lon="4.81046">
        <ele>122</ele>
      </trkpt>
      <trkpt lat="45.11316" lon="4.81051">
        <ele>122</ele>
      </trkpt>
      <trkpt lat="45.11254" lon="4.81083">
        <ele>122</ele>
      </trkpt>
      <trkpt lat="45.11223" lon="4.81114">
        <ele>122</ele>
      </trkpt>
      <trkpt lat="45.11201" lon="4.81142">
        <ele>122.8</ele>
      </trkpt>
      <trkpt lat="45.11182" lon="4.8118">
        <ele>122.3</ele>
      </trkpt>
      <trkpt lat="45.11169" lon="4.8121">
        <ele>122</ele>
      </trkpt>
      <trkpt lat="45.11163" lon="4.81219">
        <ele>122</ele>
      </trkpt>
      <trkpt lat="45.11153" lon="4.81226">
        <ele>122</ele>
      </trkpt>
      <trkpt lat="45.11133" lon="4.8123">
        <ele>122</ele>
      </trkpt>
      <trkpt lat="45.11069" lon="4.81242">
        <ele>122</ele>
      </trkpt>
      <trkpt lat="45.11041" lon="4.81249">
        <ele>122</ele>
      </trkpt>
      <trkpt lat="45.11014" lon="4.81263">
        <ele>122</ele>
      </trkpt>
      <trkpt lat="45.10987" lon="4.81286">
        <ele>122</ele>
      </trkpt>
      <trkpt lat="45.10957" lon="4.81316">
        <ele>122</ele>
      </trkpt>
      <trkpt lat="45.10932" lon="4.81356">
        <ele>122</ele>
      </trkpt>
      <trkpt lat="45.10911" lon="4.81406">
        <ele>122</ele>
      </trkpt>
      <trkpt lat="45.10881" lon="4.81467">
        <ele>122</ele>
      </trkpt>
      <trkpt lat="45.10821" lon="4.8158">
        <ele>122</ele>
      </trkpt>
      <trkpt lat="45.10786" lon="4.81649">
        <ele>121.9</ele>
      </trkpt>
      <trkpt lat="45.10772" lon="4.81672">
        <ele>122</ele>
      </trkpt>
      <trkpt lat="45.10748" lon="4.81701">
        <ele>122</ele>
      </trkpt>
      <trkpt lat="45.1072" lon="4.81731">
        <ele>121.4</ele>
      </trkpt>
      <trkpt lat="45.10637" lon="4.81809">
        <ele>121.8</ele>
      </trkpt>
      <trkpt lat="45.10601" lon="4.81847">
        <ele>121.7</ele>
      </trkpt>
      <trkpt lat="45.10553" lon="4.8191">
        <ele>120.6</ele>
      </trkpt>
      <trkpt lat="45.10514" lon="4.81946">
        <ele>121.4</ele>
      </trkpt>
      <trkpt lat="45.10486" lon="4.8197">
        <ele>122</ele>
      </trkpt>
      <trkpt lat="45.10411" lon="4.82036">
        <ele>121.8</ele>
      </trkpt>
      <trkpt lat="45.10357" lon="4.82104">
        <ele>121</ele>
      </trkpt>
      <trkpt lat="45.10351" lon="4.82118">
        <ele>120.8</ele>
      </trkpt>
      <trkpt lat="45.10351" lon="4.82118">
        <ele>120.8</ele>
      </trkpt>
      <trkpt lat="45.10349" lon="4.8213">
        <ele>120.6</ele>
      </trkpt>
      <trkpt lat="45.10343" lon="4.82146">
        <ele>120.5</ele>
      </trkpt>
      <trkpt lat="45.10306" lon="4.82188">
        <ele>120.5</ele>
      </trkpt>
      <trkpt lat="45.10279" lon="4.8222">
        <ele>120.1</ele>
      </trkpt>
      <trkpt lat="45.1027" lon="4.82231">
        <ele>120.3</ele>
      </trkpt>
      <trkpt lat="45.10261" lon="4.8225">
        <ele>120.6</ele>
      </trkpt>
      <trkpt lat="45.10254" lon="4.82279">
        <ele>121</ele>
      </trkpt>
      <trkpt lat="45.10248" lon="4.82293">
        <ele>121</ele>
      </trkpt>
      <trkpt lat="45.10185" lon="4.8232">
        <ele>121</ele>
      </trkpt>
      <trkpt lat="45.10135" lon="4.82347">
        <ele>120.9</ele>
      </trkpt>
      <trkpt lat="45.10104" lon="4.82379">
        <ele>120.9</ele>
      </trkpt>
      <trkpt lat="45.10031" lon="4.82418">
        <ele>121.8</ele>
      </trkpt>
      <trkpt lat="45.10007" lon="4.82425">
        <ele>121.7</ele>
      </trkpt>
      <trkpt lat="45.09962" lon="4.82445">
        <ele>121</ele>
      </trkpt>
      <trkpt lat="45.09863" lon="4.82484">
        <ele>122</ele>
      </trkpt>
      <trkpt lat="45.09749" lon="4.82538">
        <ele>121</ele>
      </trkpt>
      <trkpt lat="45.09715" lon="4.82555">
        <ele>121</ele>
      </trkpt>
      <trkpt lat="45.09674" lon="4.82577">
        <ele>119.5</ele>
      </trkpt>
      <trkpt lat="45.09648" lon="4.82587">
        <ele>120.4</ele>
      </trkpt>
      <trkpt lat="45.09642" lon="4.826">
        <ele>120.8</ele>
      </trkpt>
      <trkpt lat="45.09636" lon="4.82624">
        <ele>120.6</ele>
      </trkpt>
      <trkpt lat="45.09624" lon="4.82657">
        <ele>120.8</ele>
      </trkpt>
      <trkpt lat="45.09608" lon="4.82695">
        <ele>121.1</ele>
      </trkpt>
      <trkpt lat="45.09592" lon="4.82728">
        <ele>120.7</ele>
      </trkpt>
      <trkpt lat="45.09561" lon="4.82758">
        <ele>119.9</ele>
      </trkpt>
      <trkpt lat="45.09517" lon="4.828">
        <ele>119.6</ele>
      </trkpt>
      <trkpt lat="45.09492" lon="4.82827">
        <ele>119.7</ele>
      </trkpt>
      <trkpt lat="45.09464" lon="4.82855">
        <ele>120</ele>
      </trkpt>
      <trkpt lat="45.09451" lon="4.82858">
        <ele>120</ele>
      </trkpt>
      <trkpt lat="45.09412" lon="4.8287">
        <ele>119.1</ele>
      </trkpt>
      <trkpt lat="45.09337" lon="4.82884">
        <ele>119.9</ele>
      </trkpt>
      <trkpt lat="45.09253" lon="4.82919">
        <ele>119.7</ele>
      </trkpt>
      <trkpt lat="45.09232" lon="4.82927">
        <ele>119.4</ele>
      </trkpt>
      <trkpt lat="45.092" lon="4.82945">
        <ele>119.7</ele>
      </trkpt>
      <trkpt lat="45.09173" lon="4.82966">
        <ele>119.5</ele>
      </trkpt>
      <trkpt lat="45.09156" lon="4.82974">
        <ele>119.9</ele>
      </trkpt>
      <trkpt lat="45.09067" lon="4.82995">
        <ele>119.2</ele>
      </trkpt>
      <trkpt lat="45.09027" lon="4.83006">
        <ele>118.8</ele>
      </trkpt>
      <trkpt lat="45.08999" lon="4.8302">
        <ele>120</ele>
      </trkpt>
      <trkpt lat="45.08971" lon="4.83034">
        <ele>119.4</ele>
      </trkpt>
      <trkpt lat="45.08958" lon="4.83038">
        <ele>119.1</ele>
      </trkpt>
      <trkpt lat="45.0889" lon="4.8304">
        <ele>119.6</ele>
      </trkpt>
      <trkpt lat="45.08855" lon="4.83047">
        <ele>119.3</ele>
      </trkpt>
      <trkpt lat="45.08819" lon="4.83049">
        <ele>119.2</ele>
      </trkpt>
      <trkpt lat="45.08763" lon="4.83045">
        <ele>119.1</ele>
      </trkpt>
      <trkpt lat="45.087" lon="4.83032">
        <ele>119.6</ele>
      </trkpt>
      <trkpt lat="45.08616" lon="4.83002">
        <ele>119.8</ele>
      </trkpt>
      <trkpt lat="45.08568" lon="4.82979">
        <ele>118.9</ele>
      </trkpt>
      <trkpt lat="45.0855" lon="4.8297">
        <ele>118.8</ele>
      </trkpt>
      <trkpt lat="45.08515" lon="4.82947">
        <ele>118.5</ele>
      </trkpt>
      <trkpt lat="45.08496" lon="4.82931">
        <ele>118.7</ele>
      </trkpt>
      <trkpt lat="45.08451" lon="4.82888">
        <ele>119.3</ele>
      </trkpt>
      <trkpt lat="45.08436" lon="4.82872">
        <ele>119.4</ele>
      </trkpt>
      <trkpt lat="45.08414" lon="4.82857">
        <ele>120</ele>
      </trkpt>
      <trkpt lat="45.08379" lon="4.82838">
        <ele>119.4</ele>
      </trkpt>
      <trkpt lat="45.08347" lon="4.82818">
        <ele>119.1</ele>
      </trkpt>
      <trkpt lat="45.08329" lon="4.82807">
        <ele>119.7</ele>
      </trkpt>
      <trkpt lat="45.08251" lon="4.82765">
        <ele>119</ele>
      </trkpt>
      <trkpt lat="45.08227" lon="4.82748">
        <ele>119.2</ele>
      </trkpt>
      <trkpt lat="45.08194" lon="4.82724">
        <ele>118.9</ele>
      </trkpt>
      <trkpt lat="45.08161" lon="4.82702">
        <ele>119.4</ele>
      </trkpt>
      <trkpt lat="45.08134" lon="4.82684">
        <ele>119.9</ele>
      </trkpt>
      <trkpt lat="45.08095" lon="4.82671">
        <ele>119.7</ele>
      </trkpt>
      <trkpt lat="45.08074" lon="4.82664">
        <ele>119.7</ele>
      </trkpt>
      <trkpt lat="45.08059" lon="4.82656">
        <ele>119.4</ele>
      </trkpt>
      <trkpt lat="45.08051" lon="4.8264">
        <ele>119.8</ele>
      </trkpt>
      <trkpt lat="45.08046" lon="4.82634">
        <ele>119.7</ele>
      </trkpt>
      <trkpt lat="45.08036" lon="4.82626">
        <ele>119.6</ele>
      </trkpt>
      <trkpt lat="45.08022" lon="4.8262">
        <ele>119.7</ele>
      </trkpt>
      <trkpt lat="45.07993" lon="4.82628">
        <ele>119.7</ele>
      </trkpt>
      <trkpt lat="45.07955" lon="4.82623">
        <ele>119.2</ele>
      </trkpt>
      <trkpt lat="45.07849" lon="4.82612">
        <ele>119</ele>
      </trkpt>
      <trkpt lat="45.07758" lon="4.82604">
        <ele>118.3</ele>
      </trkpt>
      <trkpt lat="45.07724" lon="4.82579">
        <ele>119</ele>
      </trkpt>
      <trkpt lat="45.07689" lon="4.82556">
        <ele>119</ele>
      </trkpt>
      <trkpt lat="45.07658" lon="4.8252">
        <ele>119.2</ele>
      </trkpt>
      <trkpt lat="45.07638" lon="4.82481">
        <ele>119.7</ele>
      </trkpt>
      <trkpt lat="45.0762" lon="4.82417">
        <ele>119.7</ele>
      </trkpt>
      <trkpt lat="45.07621" lon="4.8236">
        <ele>118.7</ele>
      </trkpt>
      <trkpt lat="45.07639" lon="4.82315">
        <ele>119.4</ele>
      </trkpt>
      <trkpt lat="45.07655" lon="4.82289">
        <ele>119.6</ele>
      </trkpt>
      <trkpt lat="45.07664" lon="4.82277">
        <ele>119.9</ele>
      </trkpt>
      <trkpt lat="45.07674" lon="4.82258">
        <ele>120.1</ele>
      </trkpt>
      <trkpt lat="45.07681" lon="4.82242">
        <ele>120</ele>
      </trkpt>
      <trkpt lat="45.0768" lon="4.82223">
        <ele>119.9</ele>
      </trkpt>
      <trkpt lat="45.07671" lon="4.82185">
        <ele>119.3</ele>
      </trkpt>
      <trkpt lat="45.07631" lon="4.82034">
        <ele>119.2</ele>
      </trkpt>
      <trkpt lat="45.07605" lon="4.81939">
        <ele>120</ele>
      </trkpt>
      <trkpt lat="45.07572" lon="4.81813">
        <ele>119.2</ele>
      </trkpt>
      <trkpt lat="45.07545" lon="4.81713">
        <ele>120</ele>
      </trkpt>
      <trkpt lat="45.07533" lon="4.81667">
        <ele>121.8</ele>
      </trkpt>
      <trkpt lat="45.0753" lon="4.81655">
        <ele>123.1</ele>
      </trkpt>
      <trkpt lat="45.07527" lon="4.81651">
        <ele>123.6</ele>
      </trkpt>
      <trkpt lat="45.07527" lon="4.81651">
        <ele>123.6</ele>
      </trkpt>
      <trkpt lat="45.07523" lon="4.81652">
        <ele>122.7</ele>
      </trkpt>
      <trkpt lat="45.07477" lon="4.81685">
        <ele>117.2</ele>
      </trkpt>
      <trkpt lat="45.0742" lon="4.81728">
        <ele>123.1</ele>
      </trkpt>
      <trkpt lat="45.07403" lon="4.81744">
        <ele>123.7</ele>
      </trkpt>
      <trkpt lat="45.07385" lon="4.81763">
        <ele>123.9</ele>
      </trkpt>
      <trkpt lat="45.07376" lon="4.81782">
        <ele>123.9</ele>
      </trkpt>
      <trkpt lat="45.07361" lon="4.81822">
        <ele>124.4</ele>
      </trkpt>
      <trkpt lat="45.07349" lon="4.81858">
        <ele>123.4</ele>
      </trkpt>
      <trkpt lat="45.0734" lon="4.81898">
        <ele>123.5</ele>
      </trkpt>
      <trkpt lat="45.07321" lon="4.81963">
        <ele>123.3</ele>
      </trkpt>
      <trkpt lat="45.07271" lon="4.82119">
        <ele>123.6</ele>
      </trkpt>
      <trkpt lat="45.0726" lon="4.82159">
        <ele>123.6</ele>
      </trkpt>
      <trkpt lat="45.07258" lon="4.82173">
        <ele>123.9</ele>
      </trkpt>
      <trkpt lat="45.07258" lon="4.82185">
        <ele>124.2</ele>
      </trkpt>
      <trkpt lat="45.07262" lon="4.82197">
        <ele>124.1</ele>
      </trkpt>
      <trkpt lat="45.07268" lon="4.82207">
        <ele>123.6</ele>
      </trkpt>
      <trkpt lat="45.07275" lon="4.82221">
        <ele>123.1</ele>
      </trkpt>
      <trkpt lat="45.07283" lon="4.82244">
        <ele>122.7</ele>
      </trkpt>
      <trkpt lat="45.07289" lon="4.82277">
        <ele>122.6</ele>
      </trkpt>
      <trkpt lat="45.07292" lon="4.82307">
        <ele>121.5</ele>
      </trkpt>
      <trkpt lat="45.07293" lon="4.82347">
        <ele>121.4</ele>
      </trkpt>
      <trkpt lat="45.07292" lon="4.82381">
        <ele>120.8</ele>
      </trkpt>
      <trkpt lat="45.07289" lon="4.82418">
        <ele>121.1</ele>
      </trkpt>
      <trkpt lat="45.07282" lon="4.82459">
        <ele>122.4</ele>
      </trkpt>
      <trkpt lat="45.07274" lon="4.825">
        <ele>120.2</ele>
      </trkpt>
      <trkpt lat="45.07264" lon="4.82536">
        <ele>119.6</ele>
      </trkpt>
      <trkpt lat="45.07249" lon="4.82584">
        <ele>121.9</ele>
      </trkpt>
      <trkpt lat="45.07233" lon="4.82631">
        <ele>121.1</ele>
      </trkpt>
      <trkpt lat="45.07217" lon="4.82668">
        <ele>121</ele>
      </trkpt>
      <trkpt lat="45.07189" lon="4.82719">
        <ele>122.1</ele>
      </trkpt>
      <trkpt lat="45.07166" lon="4.82755">
        <ele>122.8</ele>
      </trkpt>
      <trkpt lat="45.07143" lon="4.82786">
        <ele>122</ele>
      </trkpt>
      <trkpt lat="45.07114" lon="4.8282">
        <ele>122</ele>
      </trkpt>
      <trkpt lat="45.07089" lon="4.82846">
        <ele>121.6</ele>
      </trkpt>
      <trkpt lat="45.07084" lon="4.82851">
        <ele>121.4</ele>
      </trkpt>
      <trkpt lat="45.07082" lon="4.82858">
        <ele>121.1</ele>
      </trkpt>
      <trkpt lat="45.07084" lon="4.82863">
        <ele>120.9</ele>
      </trkpt>
      <trkpt lat="45.07086" lon="4.82865">
        <ele>120.9</ele>
      </trkpt>
      <trkpt lat="45.0711" lon="4.82896">
        <ele>120.7</ele>
      </trkpt>
      <trkpt lat="45.07115" lon="4.82902">
        <ele>120.3</ele>
      </trkpt>
      <trkpt lat="45.07116" lon="4.82907">
        <ele>120</ele>
      </trkpt>
      <trkpt lat="45.07114" lon="4.82914">
        <ele>119.8</ele>
      </trkpt>
      <trkpt lat="45.07106" lon="4.82922">
        <ele>119.4</ele>
      </trkpt>
      <trkpt lat="45.07075" lon="4.82952">
        <ele>118</ele>
      </trkpt>
      <trkpt lat="45.07065" lon="4.82957">
        <ele>118.2</ele>
      </trkpt>
      <trkpt lat="45.07054" lon="4.82962">
        <ele>118.4</ele>
      </trkpt>
      <trkpt lat="45.07045" lon="4.82971">
        <ele>118.4</ele>
      </trkpt>
      <trkpt lat="45.07036" lon="4.82983">
        <ele>118.3</ele>
      </trkpt>
      <trkpt lat="45.06995" lon="4.83035">
        <ele>118</ele>
      </trkpt>
      <trkpt lat="45.0696" lon="4.83091">
        <ele>117.7</ele>
      </trkpt>
      <trkpt lat="45.06923" lon="4.83158">
        <ele>118.5</ele>
      </trkpt>
      <trkpt lat="45.06907" lon="4.83189">
        <ele>119.2</ele>
      </trkpt>
      <trkpt lat="45.06879" lon="4.83243">
        <ele>121.6</ele>
      </trkpt>
      <trkpt lat="45.06865" lon="4.83291">
        <ele>120.1</ele>
      </trkpt>
      <trkpt lat="45.06839" lon="4.83344">
        <ele>119.9</ele>
      </trkpt>
      <trkpt lat="45.0681" lon="4.83393">
        <ele>120.9</ele>
      </trkpt>
      <trkpt lat="45.06777" lon="4.83463">
        <ele>121.7</ele>
      </trkpt>
      <trkpt lat="45.06697" lon="4.83646">
        <ele>121.8</ele>
      </trkpt>
      <trkpt lat="45.06686" lon="4.83671">
        <ele>120</ele>
      </trkpt>
      <trkpt lat="45.06591" lon="4.83889">
        <ele>120.7</ele>
      </trkpt>
      <trkpt lat="45.06569" lon="4.83943">
        <ele>120.6</ele>
      </trkpt>
      <trkpt lat="45.06553" lon="4.83963">
        <ele>122.4</ele>
      </trkpt>
      <trkpt lat="45.06545" lon="4.8398">
        <ele>122.2</ele>
      </trkpt>
      <trkpt lat="45.06538" lon="4.84002">
        <ele>122.9</ele>
      </trkpt>
      <trkpt lat="45.06537" lon="4.84023">
        <ele>122.2</ele>
      </trkpt>
      <trkpt lat="45.06777" lon="4.83463">
        <ele>121.7</ele>
      </trkpt>
      <trkpt lat="45.06697" lon="4.83647">
        <ele>121.8</ele>
      </trkpt>
      <trkpt lat="45.06686" lon="4.83671">
        <ele>120</ele>
      </trkpt>
      <trkpt lat="45.06591" lon="4.83889">
        <ele>120.7</ele>
      </trkpt>
      <trkpt lat="45.06569" lon="4.83943">
        <ele>120.6</ele>
      </trkpt>
      <trkpt lat="45.06553" lon="4.83963">
        <ele>122.4</ele>
      </trkpt>
      <trkpt lat="45.06545" lon="4.8398">
        <ele>122.2</ele>
      </trkpt>
      <trkpt lat="45.06538" lon="4.84002">
        <ele>122.9</ele>
      </trkpt>
      <trkpt lat="45.06537" lon="4.84023">
        <ele>122.2</ele>
      </trkpt>
      <trkpt lat="45.06537" lon="4.84023">
        <ele>122.2</ele>
      </trkpt>
      <trkpt lat="45.06544" lon="4.84034">
        <ele>120.8</ele>
      </trkpt>
      <trkpt lat="45.06547" lon="4.8405">
        <ele>119.4</ele>
      </trkpt>
      <trkpt lat="45.06539" lon="4.84086">
        <ele>119.4</ele>
      </trkpt>
      <trkpt lat="45.06524" lon="4.84146">
        <ele>119.7</ele>
      </trkpt>
      <trkpt lat="45.065" lon="4.84241">
        <ele>121</ele>
      </trkpt>
      <trkpt lat="45.0647" lon="4.84369">
        <ele>120.3</ele>
      </trkpt>
      <trkpt lat="45.0646" lon="4.84426">
        <ele>118.4</ele>
      </trkpt>
      <trkpt lat="45.06456" lon="4.84484">
        <ele>118.7</ele>
      </trkpt>
      <trkpt lat="45.06446" lon="4.84539">
        <ele>119.9</ele>
      </trkpt>
      <trkpt lat="45.06431" lon="4.84615">
        <ele>119</ele>
      </trkpt>
      <trkpt lat="45.0642" lon="4.84671">
        <ele>120.3</ele>
      </trkpt>
      <trkpt lat="45.06404" lon="4.84737">
        <ele>118.4</ele>
      </trkpt>
      <trkpt lat="45.06388" lon="4.848">
        <ele>119.9</ele>
      </trkpt>
      <trkpt lat="45.06369" lon="4.84875">
        <ele>118.8</ele>
      </trkpt>
      <trkpt lat="45.06335" lon="4.85003">
        <ele>120.5</ele>
      </trkpt>
      <trkpt lat="45.06311" lon="4.85077">
        <ele>119.5</ele>
      </trkpt>
      <trkpt lat="45.06311" lon="4.85077">
        <ele>119.5</ele>
      </trkpt>
      <trkpt lat="45.06296" lon="4.85124">
        <ele>119</ele>
      </trkpt>
      <trkpt lat="45.06267" lon="4.85199">
        <ele>118.6</ele>
      </trkpt>
      <trkpt lat="45.06242" lon="4.85255">
        <ele>118.7</ele>
      </trkpt>
      <trkpt lat="45.062" lon="4.85344">
        <ele>119.4</ele>
      </trkpt>
      <trkpt lat="45.06116" lon="4.85486">
        <ele>118.7</ele>
      </trkpt>
      <trkpt lat="45.06061" lon="4.85565">
        <ele>118.5</ele>
      </trkpt>
      <trkpt lat="45.06035" lon="4.85598">
        <ele>118.9</ele>
      </trkpt>
      <trkpt lat="45.0599" lon="4.85647">
        <ele>118.8</ele>
      </trkpt>
      <trkpt lat="45.05937" lon="4.85683">
        <ele>118.3</ele>
      </trkpt>
      <trkpt lat="45.05887" lon="4.85709">
        <ele>118.5</ele>
      </trkpt>
      <trkpt lat="45.05843" lon="4.85726">
        <ele>119.6</ele>
      </trkpt>
      <trkpt lat="45.058" lon="4.85736">
        <ele>118.5</ele>
      </trkpt>
      <trkpt lat="45.05746" lon="4.8574">
        <ele>117.7</ele>
      </trkpt>
      <trkpt lat="45.05659" lon="4.8573">
        <ele>118.7</ele>
      </trkpt>
      <trkpt lat="45.05591" lon="4.85713">
        <ele>118.4</ele>
      </trkpt>
      <trkpt lat="45.05485" lon="4.85681">
        <ele>118.5</ele>
      </trkpt>
      <trkpt lat="45.05411" lon="4.85647">
        <ele>118.6</ele>
      </trkpt>
      <trkpt lat="45.05331" lon="4.85601">
        <ele>119.2</ele>
      </trkpt>
      <trkpt lat="45.05242" lon="4.85539">
        <ele>118.3</ele>
      </trkpt>
      <trkpt lat="45.05147" lon="4.85457">
        <ele>118.7</ele>
      </trkpt>
      <trkpt lat="45.0507" lon="4.85376">
        <ele>118.5</ele>
      </trkpt>
      <trkpt lat="45.04727" lon="4.85004">
        <ele>118.5</ele>
      </trkpt>
      <trkpt lat="45.04635" lon="4.84902">
        <ele>118.4</ele>
      </trkpt>
      <trkpt lat="45.04553" lon="4.84797">
        <ele>118.3</ele>
      </trkpt>
      <trkpt lat="45.04475" lon="4.84686">
        <ele>118.3</ele>
      </trkpt>
      <trkpt lat="45.04439" lon="4.84631">
        <ele>118.3</ele>
      </trkpt>
      <trkpt lat="45.0439" lon="4.84565">
        <ele>118.5</ele>
      </trkpt>
      <trkpt lat="45.04346" lon="4.84511">
        <ele>117.7</ele>
      </trkpt>
      <trkpt lat="45.04285" lon="4.84444">
        <ele>118.5</ele>
      </trkpt>
      <trkpt lat="45.0428" lon="4.84439">
        <ele>118.6</ele>
      </trkpt>
      <trkpt lat="45.04278" lon="4.84434">
        <ele>118.6</ele>
      </trkpt>
      <trkpt lat="45.04278" lon="4.84425">
        <ele>118.3</ele>
      </trkpt>
      <trkpt lat="45.04287" lon="4.84406">
        <ele>115.5</ele>
      </trkpt>
      <trkpt lat="45.04297" lon="4.84386">
        <ele>115.2</ele>
      </trkpt>
      <trkpt lat="45.04301" lon="4.84378">
        <ele>115.7</ele>
      </trkpt>
      <trkpt lat="45.043" lon="4.84371">
        <ele>115.8</ele>
      </trkpt>
      <trkpt lat="45.04289" lon="4.84359">
        <ele>116</ele>
      </trkpt>
      <trkpt lat="45.04197" lon="4.8427">
        <ele>116</ele>
      </trkpt>
      <trkpt lat="45.04086" lon="4.84162">
        <ele>115.8</ele>
      </trkpt>
      <trkpt lat="45.03729" lon="4.83817">
        <ele>114.7</ele>
      </trkpt>
      <trkpt lat="45.03701" lon="4.83792">
        <ele>114.8</ele>
      </trkpt>
      <trkpt lat="45.03643" lon="4.83752">
        <ele>115.8</ele>
      </trkpt>
      <trkpt lat="45.03575" lon="4.83705">
        <ele>115</ele>
      </trkpt>
      <trkpt lat="45.03548" lon="4.83689">
        <ele>115.1</ele>
      </trkpt>
      <trkpt lat="45.03504" lon="4.83669">
        <ele>115.6</ele>
      </trkpt>
      <trkpt lat="45.03271" lon="4.83581">
        <ele>114.1</ele>
      </trkpt>
      <trkpt lat="45.0323" lon="4.83574">
        <ele>113.1</ele>
      </trkpt>
      <trkpt lat="45.03173" lon="4.8357">
        <ele>114.9</ele>
      </trkpt>
      <trkpt lat="45.03059" lon="4.83579">
        <ele>114.5</ele>
      </trkpt>
      <trkpt lat="45.02921" lon="4.83609">
        <ele>114.7</ele>
      </trkpt>
      <trkpt lat="45.02818" lon="4.83648">
        <ele>114.1</ele>
      </trkpt>
      <trkpt lat="45.02769" lon="4.83672">
        <ele>115</ele>
      </trkpt>
      <trkpt lat="45.02719" lon="4.83707">
        <ele>114.9</ele>
      </trkpt>
      <trkpt lat="45.02704" lon="4.83726">
        <ele>115</ele>
      </trkpt>
      <trkpt lat="45.02683" lon="4.83743">
        <ele>114.6</ele>
      </trkpt>
      <trkpt lat="45.02653" lon="4.83763">
        <ele>114.3</ele>
      </trkpt>
      <trkpt lat="45.02615" lon="4.83798">
        <ele>114.6</ele>
      </trkpt>
      <trkpt lat="45.02561" lon="4.83849">
        <ele>114.4</ele>
      </trkpt>
      <trkpt lat="45.02506" lon="4.83912">
        <ele>115</ele>
      </trkpt>
      <trkpt lat="45.02446" lon="4.83984">
        <ele>115.5</ele>
      </trkpt>
      <trkpt lat="45.02391" lon="4.84056">
        <ele>115.6</ele>
      </trkpt>
      <trkpt lat="45.02352" lon="4.84109">
        <ele>114.1</ele>
      </trkpt>
      <trkpt lat="45.02286" lon="4.84181">
        <ele>113.7</ele>
      </trkpt>
      <trkpt lat="45.02242" lon="4.84217">
        <ele>114.4</ele>
      </trkpt>
      <trkpt lat="45.02192" lon="4.84249">
        <ele>114.9</ele>
      </trkpt>
      <trkpt lat="45.02142" lon="4.84272">
        <ele>114.5</ele>
      </trkpt>
      <trkpt lat="45.02093" lon="4.84293">
        <ele>113.6</ele>
      </trkpt>
      <trkpt lat="45.02061" lon="4.843">
        <ele>113.3</ele>
      </trkpt>
      <trkpt lat="45.02012" lon="4.84303">
        <ele>114.9</ele>
      </trkpt>
      <trkpt lat="45.01941" lon="4.84299">
        <ele>114.3</ele>
      </trkpt>
      <trkpt lat="45.01881" lon="4.84288">
        <ele>112.6</ele>
      </trkpt>
      <trkpt lat="45.01808" lon="4.84256">
        <ele>113.2</ele>
      </trkpt>
      <trkpt lat="45.01762" lon="4.84232">
        <ele>113.2</ele>
      </trkpt>
      <trkpt lat="45.01717" lon="4.84196">
        <ele>113.3</ele>
      </trkpt>
      <trkpt lat="45.01671" lon="4.84153">
        <ele>113.1</ele>
      </trkpt>
      <trkpt lat="45.01642" lon="4.84119">
        <ele>113.2</ele>
      </trkpt>
      <trkpt lat="45.01636" lon="4.84108">
        <ele>113.6</ele>
      </trkpt>
      <trkpt lat="45.01626" lon="4.84098">
        <ele>113.1</ele>
      </trkpt>
      <trkpt lat="45.01626" lon="4.84098">
        <ele>113.1</ele>
      </trkpt>
      <trkpt lat="45.01613" lon="4.84091">
        <ele>112.9</ele>
      </trkpt>
      <trkpt lat="45.01594" lon="4.84084">
        <ele>114</ele>
      </trkpt>
      <trkpt lat="45.01575" lon="4.84079">
        <ele>114.8</ele>
      </trkpt>
      <trkpt lat="45.0156" lon="4.84062">
        <ele>114.6</ele>
      </trkpt>
      <trkpt lat="45.01521" lon="4.84015">
        <ele>115.1</ele>
      </trkpt>
      <trkpt lat="45.01511" lon="4.84001">
        <ele>114.7</ele>
      </trkpt>
      <trkpt lat="45.01511" lon="4.84001">
        <ele>114.7</ele>
      </trkpt>
      <trkpt lat="45.01503" lon="4.83996">
        <ele>114.8</ele>
      </trkpt>
      <trkpt lat="45.01457" lon="4.83965">
        <ele>116.6</ele>
      </trkpt>
      <trkpt lat="45.0143" lon="4.83924">
        <ele>116.1</ele>
      </trkpt>
      <trkpt lat="45.01409" lon="4.83888">
        <ele>116.9</ele>
      </trkpt>
      <trkpt lat="45.01362" lon="4.83783">
        <ele>117.9</ele>
      </trkpt>
      <trkpt lat="45.01334" lon="4.83718">
        <ele>117.7</ele>
      </trkpt>
      <trkpt lat="45.01325" lon="4.83703">
        <ele>117.4</ele>
      </trkpt>
      <trkpt lat="45.01314" lon="4.83688">
        <ele>117.7</ele>
      </trkpt>
      <trkpt lat="45.01269" lon="4.8363">
        <ele>117.6</ele>
      </trkpt>
      <trkpt lat="45.01241" lon="4.83602">
        <ele>117.3</ele>
      </trkpt>
      <trkpt lat="45.01231" lon="4.83592">
        <ele>117.4</ele>
      </trkpt>
      <trkpt lat="45.01212" lon="4.83582">
        <ele>117.8</ele>
      </trkpt>
      <trkpt lat="45.01197" lon="4.8358">
        <ele>117.7</ele>
      </trkpt>
      <trkpt lat="45.01184" lon="4.83581">
        <ele>117.8</ele>
      </trkpt>
      <trkpt lat="45.01165" lon="4.83594">
        <ele>117.6</ele>
      </trkpt>
      <trkpt lat="45.0114" lon="4.83629">
        <ele>118</ele>
      </trkpt>
      <trkpt lat="45.0112" lon="4.83668">
        <ele>117.7</ele>
      </trkpt>
      <trkpt lat="45.0112" lon="4.83668">
        <ele>117.7</ele>
      </trkpt>
      <trkpt lat="45.01092" lon="4.83704">
        <ele>117.9</ele>
      </trkpt>
      <trkpt lat="45.01066" lon="4.83758">
        <ele>118.1</ele>
      </trkpt>
      <trkpt lat="45.01049" lon="4.8385">
        <ele>115.8</ele>
      </trkpt>
      <trkpt lat="45.01033" lon="4.83946">
        <ele>108.1</ele>
      </trkpt>
      <trkpt lat="45.01017" lon="4.84044">
        <ele>117.8</ele>
      </trkpt>
      <trkpt lat="45.01009" lon="4.84107">
        <ele>118</ele>
      </trkpt>
      <trkpt lat="45.01015" lon="4.84137">
        <ele>118.5</ele>
      </trkpt>
      <trkpt lat="45.01029" lon="4.84149">
        <ele>118.6</ele>
      </trkpt>
      <trkpt lat="45.01045" lon="4.8415">
        <ele>117.8</ele>
      </trkpt>
      <trkpt lat="45.01056" lon="4.84153">
        <ele>117.5</ele>
      </trkpt>
      <trkpt lat="45.01067" lon="4.84165">
        <ele>116.4</ele>
      </trkpt>
      <trkpt lat="45.01074" lon="4.84186">
        <ele>116.5</ele>
      </trkpt>
      <trkpt lat="45.01074" lon="4.84209">
        <ele>116.5</ele>
      </trkpt>
      <trkpt lat="45.01075" lon="4.84231">
        <ele>116.1</ele>
      </trkpt>
      <trkpt lat="45.01077" lon="4.84256">
        <ele>116.2</ele>
      </trkpt>
      <trkpt lat="45.01079" lon="4.84301">
        <ele>115.6</ele>
      </trkpt>
      <trkpt lat="45.01076" lon="4.84371">
        <ele>115.5</ele>
      </trkpt>
      <trkpt lat="45.01072" lon="4.84431">
        <ele>115.7</ele>
      </trkpt>
      <trkpt lat="45.01072" lon="4.84495">
        <ele>116</ele>
      </trkpt>
      <trkpt lat="45.01074" lon="4.84528">
        <ele>117</ele>
      </trkpt>
      <trkpt lat="45.01081" lon="4.84553">
        <ele>118</ele>
      </trkpt>
      <trkpt lat="45.01091" lon="4.84581">
        <ele>118.7</ele>
      </trkpt>
      <trkpt lat="45.01109" lon="4.84614">
        <ele>118.2</ele>
      </trkpt>
      <trkpt lat="45.01154" lon="4.8467">
        <ele>118</ele>
      </trkpt>
      <trkpt lat="45.01197" lon="4.84724">
        <ele>118.9</ele>
      </trkpt>
      <trkpt lat="45.01227" lon="4.84758">
        <ele>118.8</ele>
      </trkpt>
      <trkpt lat="45.01255" lon="4.84793">
        <ele>119</ele>
      </trkpt>
      <trkpt lat="45.01274" lon="4.84833">
        <ele>119</ele>
      </trkpt>
      <trkpt lat="45.01291" lon="4.84887">
        <ele>119</ele>
      </trkpt>
      <trkpt lat="45.01311" lon="4.84958">
        <ele>119</ele>
      </trkpt>
      <trkpt lat="45.01342" lon="4.85072">
        <ele>118.9</ele>
      </trkpt>
      <trkpt lat="45.01374" lon="4.85157">
        <ele>119.5</ele>
      </trkpt>
      <trkpt lat="45.01396" lon="4.85219">
        <ele>120.6</ele>
      </trkpt>
      <trkpt lat="45.01433" lon="4.85313">
        <ele>117</ele>
      </trkpt>
      <trkpt lat="45.01472" lon="4.8541">
        <ele>117</ele>
      </trkpt>
      <trkpt lat="45.01487" lon="4.85451">
        <ele>119.3</ele>
      </trkpt>
      <trkpt lat="45.01469" lon="4.85468">
        <ele>121</ele>
      </trkpt>
      <trkpt lat="45.01443" lon="4.85487">
        <ele>121</ele>
      </trkpt>
      <trkpt lat="45.01407" lon="4.85515">
        <ele>121</ele>
      </trkpt>
      <trkpt lat="45.01379" lon="4.85534">
        <ele>121</ele>
      </trkpt>
      <trkpt lat="45.0136" lon="4.85547">
        <ele>121</ele>
      </trkpt>
      <trkpt lat="45.01327" lon="4.85566">
        <ele>121</ele>
      </trkpt>
      <trkpt lat="45.01299" lon="4.85582">
        <ele>121</ele>
      </trkpt>
      <trkpt lat="45.01274" lon="4.85598">
        <ele>121</ele>
      </trkpt>
      <trkpt lat="45.01244" lon="4.85615">
        <ele>121</ele>
      </trkpt>
      <trkpt lat="45.01204" lon="4.85637">
        <ele>121</ele>
      </trkpt>
      <trkpt lat="45.01168" lon="4.85657">
        <ele>121</ele>
      </trkpt>
      <trkpt lat="45.01138" lon="4.85674">
        <ele>121</ele>
      </trkpt>
      <trkpt lat="45.01097" lon="4.85698">
        <ele>121</ele>
      </trkpt>
      <trkpt lat="45.01061" lon="4.85718">
        <ele>121</ele>
      </trkpt>
      <trkpt lat="45.01028" lon="4.85737">
        <ele>121</ele>
      </trkpt>
      <trkpt lat="45.00991" lon="4.85759">
        <ele>121</ele>
      </trkpt>
      <trkpt lat="45.00949" lon="4.85783">
        <ele>121</ele>
      </trkpt>
      <trkpt lat="45.00915" lon="4.85802">
        <ele>121</ele>
      </trkpt>
      <trkpt lat="45.00872" lon="4.85827">
        <ele>121</ele>
      </trkpt>
      <trkpt lat="45.00833" lon="4.85849">
        <ele>121</ele>
      </trkpt>
      <trkpt lat="45.00765" lon="4.85887">
        <ele>121</ele>
      </trkpt>
      <trkpt lat="45.00728" lon="4.85907">
        <ele>121</ele>
      </trkpt>
      <trkpt lat="45.00701" lon="4.85923">
        <ele>121</ele>
      </trkpt>
      <trkpt lat="45.00683" lon="4.85932">
        <ele>121</ele>
      </trkpt>
      <trkpt lat="45.00641" lon="4.85959">
        <ele>121</ele>
      </trkpt>
      <trkpt lat="45.00588" lon="4.8599">
        <ele>121</ele>
      </trkpt>
      <trkpt lat="45.0054" lon="4.86016">
        <ele>121</ele>
      </trkpt>
      <trkpt lat="45.00436" lon="4.86076">
        <ele>119</ele>
      </trkpt>
      <trkpt lat="45.00391" lon="4.861">
        <ele>119</ele>
      </trkpt>
      <trkpt lat="45.00345" lon="4.86127">
        <ele>119</ele>
      </trkpt>
      <trkpt lat="45.00298" lon="4.86154">
        <ele>119</ele>
      </trkpt>
      <trkpt lat="45.00261" lon="4.86174">
        <ele>119</ele>
      </trkpt>
      <trkpt lat="45.0022" lon="4.86198">
        <ele>119</ele>
      </trkpt>
      <trkpt lat="45.00154" lon="4.86234">
        <ele>119</ele>
      </trkpt>
      <trkpt lat="45.00115" lon="4.86256">
        <ele>119</ele>
      </trkpt>
      <trkpt lat="45.00085" lon="4.86273">
        <ele>119</ele>
      </trkpt>
      <trkpt lat="45.0005" lon="4.86295">
        <ele>119</ele>
      </trkpt>
      <trkpt lat="45.0002" lon="4.86312">
        <ele>119</ele>
      </trkpt>
      <trkpt lat="44.99742" lon="4.86464">
        <ele>111</ele>
      </trkpt>
      <trkpt lat="44.99737" lon="4.86467">
        <ele>111</ele>
      </trkpt>
      <trkpt lat="44.99699" lon="4.86489">
        <ele>113</ele>
      </trkpt>
      <trkpt lat="44.99666" lon="4.86509">
        <ele>113</ele>
      </trkpt>
      <trkpt lat="44.99622" lon="4.86534">
        <ele>115</ele>
      </trkpt>
      <trkpt lat="44.99554" lon="4.86571">
        <ele>118</ele>
      </trkpt>
      <trkpt lat="44.9954" lon="4.8658">
        <ele>118</ele>
      </trkpt>
      <trkpt lat="44.99525" lon="4.86589">
        <ele>118</ele>
      </trkpt>
      <trkpt lat="44.9952" lon="4.86591">
        <ele>118</ele>
      </trkpt>
      <trkpt lat="44.99506" lon="4.86599">
        <ele>118</ele>
      </trkpt>
      <trkpt lat="44.99501" lon="4.86601">
        <ele>118</ele>
      </trkpt>
      <trkpt lat="44.99463" lon="4.86623">
        <ele>118</ele>
      </trkpt>
      <trkpt lat="44.99454" lon="4.86628">
        <ele>118</ele>
      </trkpt>
      <trkpt lat="44.99435" lon="4.8664">
        <ele>118</ele>
      </trkpt>
      <trkpt lat="44.99393" lon="4.86663">
        <ele>118</ele>
      </trkpt>
      <trkpt lat="44.99369" lon="4.86675">
        <ele>118</ele>
      </trkpt>
      <trkpt lat="44.99365" lon="4.86678">
        <ele>118</ele>
      </trkpt>
      <trkpt lat="44.99324" lon="4.86701">
        <ele>118</ele>
      </trkpt>
      <trkpt lat="44.99304" lon="4.86712">
        <ele>118</ele>
      </trkpt>
      <trkpt lat="44.99299" lon="4.86714">
        <ele>118</ele>
      </trkpt>
      <trkpt lat="44.99299" lon="4.86714">
        <ele>118</ele>
      </trkpt>
      <trkpt lat="44.99299" lon="4.86714">
        <ele>118</ele>
      </trkpt>
      <trkpt lat="44.993" lon="4.86714">
        <ele>118</ele>
      </trkpt>
      <trkpt lat="44.99299" lon="4.86714">
        <ele>118</ele>
      </trkpt>
      <trkpt lat="44.99295" lon="4.86716">
        <ele>118</ele>
      </trkpt>
      <trkpt lat="44.99286" lon="4.86725">
        <ele>118</ele>
      </trkpt>
      <trkpt lat="44.99285" lon="4.86731">
        <ele>118</ele>
      </trkpt>
      <trkpt lat="44.99292" lon="4.86745">
        <ele>118</ele>
      </trkpt>
      <trkpt lat="44.99312" lon="4.86755">
        <ele>118</ele>
      </trkpt>
      <trkpt lat="44.99317" lon="4.86757">
        <ele>118</ele>
      </trkpt>
      <trkpt lat="44.99333" lon="4.86765">
        <ele>118</ele>
      </trkpt>
      <trkpt lat="44.99354" lon="4.86777">
        <ele>118</ele>
      </trkpt>
      <trkpt lat="44.99401" lon="4.86805">
        <ele>118</ele>
      </trkpt>
      <trkpt lat="44.99441" lon="4.8683">
        <ele>118</ele>
      </trkpt>
      <trkpt lat="44.99467" lon="4.8685">
        <ele>118</ele>
      </trkpt>
      <trkpt lat="44.9952" lon="4.86886">
        <ele>118</ele>
      </trkpt>
      <trkpt lat="44.99523" lon="4.8689">
        <ele>119</ele>
      </trkpt>
      <trkpt lat="44.99447" lon="4.87041">
        <ele>123</ele>
      </trkpt>
      <trkpt lat="44.99426" lon="4.87084">
        <ele>123</ele>
      </trkpt>
      <trkpt lat="44.99418" lon="4.87099">
        <ele>123</ele>
      </trkpt>
      <trkpt lat="44.99408" lon="4.87109">
        <ele>123</ele>
      </trkpt>
      <trkpt lat="44.99394" lon="4.87098">
        <ele>123</ele>
      </trkpt>
      <trkpt lat="44.99361" lon="4.87079">
        <ele>120</ele>
      </trkpt>
      <trkpt lat="44.99331" lon="4.87068">
        <ele>120</ele>
      </trkpt>
      <trkpt lat="44.99311" lon="4.87063">
        <ele>120</ele>
      </trkpt>
      <trkpt lat="44.99278" lon="4.87054">
        <ele>120</ele>
      </trkpt>
      <trkpt lat="44.99232" lon="4.87039">
        <ele>120</ele>
      </trkpt>
      <trkpt lat="44.99181" lon="4.87018">
        <ele>120</ele>
      </trkpt>
      <trkpt lat="44.99128" lon="4.86993">
        <ele>120</ele>
      </trkpt>
      <trkpt lat="44.99081" lon="4.86968">
        <ele>120</ele>
      </trkpt>
      <trkpt lat="44.99046" lon="4.86943">
        <ele>120</ele>
      </trkpt>
      <trkpt lat="44.99015" lon="4.86913">
        <ele>120</ele>
      </trkpt>
      <trkpt lat="44.98982" lon="4.86874">
        <ele>120</ele>
      </trkpt>
      <trkpt lat="44.98895" lon="4.86812">
        <ele>120</ele>
      </trkpt>
      <trkpt lat="44.98858" lon="4.86791">
        <ele>120</ele>
      </trkpt>
      <trkpt lat="44.98848" lon="4.86786">
        <ele>120</ele>
      </trkpt>
      <trkpt lat="44.98823" lon="4.86771">
        <ele>120</ele>
      </trkpt>
      <trkpt lat="44.98771" lon="4.86742">
        <ele>120</ele>
      </trkpt>
      <trkpt lat="44.98734" lon="4.86719">
        <ele>120</ele>
      </trkpt>
      <trkpt lat="44.98703" lon="4.86698">
        <ele>120</ele>
      </trkpt>
      <trkpt lat="44.98698" lon="4.86694">
        <ele>120</ele>
      </trkpt>
      <trkpt lat="44.98659" lon="4.86662">
        <ele>120</ele>
      </trkpt>
      <trkpt lat="44.98625" lon="4.86629">
        <ele>120</ele>
      </trkpt>
      <trkpt lat="44.98593" lon="4.86595">
        <ele>120</ele>
      </trkpt>
      <trkpt lat="44.98558" lon="4.86551">
        <ele>120</ele>
      </trkpt>
      <trkpt lat="44.9853" lon="4.86509">
        <ele>120</ele>
      </trkpt>
      <trkpt lat="44.985" lon="4.86462">
        <ele>120</ele>
      </trkpt>
      <trkpt lat="44.98471" lon="4.86414">
        <ele>120</ele>
      </trkpt>
      <trkpt lat="44.98443" lon="4.86365">
        <ele>120</ele>
      </trkpt>
      <trkpt lat="44.98407" lon="4.86291">
        <ele>120</ele>
      </trkpt>
      <trkpt lat="44.98386" lon="4.86246">
        <ele>120</ele>
      </trkpt>
      <trkpt lat="44.98363" lon="4.86194">
        <ele>120</ele>
      </trkpt>
      <trkpt lat="44.9834" lon="4.86139">
        <ele>120</ele>
      </trkpt>
      <trkpt lat="44.98315" lon="4.86087">
        <ele>120</ele>
      </trkpt>
      <trkpt lat="44.98286" lon="4.86038">
        <ele>120</ele>
      </trkpt>
      <trkpt lat="44.98263" lon="4.86005">
        <ele>120</ele>
      </trkpt>
      <trkpt lat="44.98229" lon="4.85965">
        <ele>120</ele>
      </trkpt>
      <trkpt lat="44.98199" lon="4.85934">
        <ele>120</ele>
      </trkpt>
      <trkpt lat="44.98171" lon="4.8591">
        <ele>120</ele>
      </trkpt>
      <trkpt lat="44.98142" lon="4.85889">
        <ele>120</ele>
      </trkpt>
      <trkpt lat="44.98107" lon="4.8587">
        <ele>120</ele>
      </trkpt>
      <trkpt lat="44.9806" lon="4.8585">
        <ele>120</ele>
      </trkpt>
      <trkpt lat="44.98013" lon="4.8584">
        <ele>120</ele>
      </trkpt>
      <trkpt lat="44.98003" lon="4.85838">
        <ele>120</ele>
      </trkpt>
      <trkpt lat="44.97972" lon="4.85835">
        <ele>120</ele>
      </trkpt>
      <trkpt lat="44.97928" lon="4.85832">
        <ele>120</ele>
      </trkpt>
      <trkpt lat="44.97818" lon="4.8584">
        <ele>120</ele>
      </trkpt>
      <trkpt lat="44.97782" lon="4.85845">
        <ele>120</ele>
      </trkpt>
      <trkpt lat="44.9774" lon="4.85855">
        <ele>120</ele>
      </trkpt>
      <trkpt lat="44.97693" lon="4.85868">
        <ele>120</ele>
      </trkpt>
      <trkpt lat="44.97653" lon="4.85883">
        <ele>120</ele>
      </trkpt>
      <trkpt lat="44.97619" lon="4.85898">
        <ele>120</ele>
      </trkpt>
      <trkpt lat="44.97523" lon="4.85948">
        <ele>120</ele>
      </trkpt>
      <trkpt lat="44.97495" lon="4.85964">
        <ele>120</ele>
      </trkpt>
      <trkpt lat="44.97456" lon="4.85989">
        <ele>120</ele>
      </trkpt>
      <trkpt lat="44.97419" lon="4.86012">
        <ele>120</ele>
      </trkpt>
      <trkpt lat="44.97397" lon="4.86029">
        <ele>120</ele>
      </trkpt>
      <trkpt lat="44.97404" lon="4.86053">
        <ele>120</ele>
      </trkpt>
      <trkpt lat="44.97421" lon="4.86108">
        <ele>122</ele>
      </trkpt>
      <trkpt lat="44.97429" lon="4.86146">
        <ele>122</ele>
      </trkpt>
      <trkpt lat="44.97414" lon="4.86167">
        <ele>122</ele>
      </trkpt>
      <trkpt lat="44.97394" lon="4.86186">
        <ele>122</ele>
      </trkpt>
      <trkpt lat="44.97389" lon="4.86192">
        <ele>122</ele>
      </trkpt>
      <trkpt lat="44.97385" lon="4.86198">
        <ele>122</ele>
      </trkpt>
      <trkpt lat="44.97366" lon="4.86232">
        <ele>122</ele>
      </trkpt>
      <trkpt lat="44.97351" lon="4.86279">
        <ele>122</ele>
      </trkpt>
      <trkpt lat="44.97334" lon="4.86345">
        <ele>122</ele>
      </trkpt>
      <trkpt lat="44.97321" lon="4.86406">
        <ele>122</ele>
      </trkpt>
      <trkpt lat="44.97312" lon="4.8645">
        <ele>122</ele>
      </trkpt>
      <trkpt lat="44.97281" lon="4.866">
        <ele>127</ele>
      </trkpt>
      <trkpt lat="44.97273" lon="4.86624">
        <ele>127</ele>
      </trkpt>
      <trkpt lat="44.97265" lon="4.8664">
        <ele>127</ele>
      </trkpt>
      <trkpt lat="44.9726" lon="4.86653">
        <ele>127</ele>
      </trkpt>
      <trkpt lat="44.9724" lon="4.86762">
        <ele>129</ele>
      </trkpt>
      <trkpt lat="44.97232" lon="4.86803">
        <ele>129</ele>
      </trkpt>
      <trkpt lat="44.9723" lon="4.86809">
        <ele>129</ele>
      </trkpt>
      <trkpt lat="44.97225" lon="4.86833">
        <ele>129</ele>
      </trkpt>
      <trkpt lat="44.97221" lon="4.86852">
        <ele>129</ele>
      </trkpt>
      <trkpt lat="44.97216" lon="4.86877">
        <ele>129</ele>
      </trkpt>
      <trkpt lat="44.97203" lon="4.86929">
        <ele>129</ele>
      </trkpt>
      <trkpt lat="44.9719" lon="4.86968">
        <ele>129</ele>
      </trkpt>
      <trkpt lat="44.97175" lon="4.87012">
        <ele>129</ele>
      </trkpt>
      <trkpt lat="44.9717" lon="4.87025">
        <ele>129</ele>
      </trkpt>
      <trkpt lat="44.97159" lon="4.87057">
        <ele>129</ele>
      </trkpt>
      <trkpt lat="44.97146" lon="4.87099">
        <ele>129</ele>
      </trkpt>
      <trkpt lat="44.9712" lon="4.87176">
        <ele>129</ele>
      </trkpt>
      <trkpt lat="44.97103" lon="4.87229">
        <ele>129</ele>
      </trkpt>
      <trkpt lat="44.97088" lon="4.87271">
        <ele>129</ele>
      </trkpt>
      <trkpt lat="44.97075" lon="4.87313">
        <ele>129</ele>
      </trkpt>
      <trkpt lat="44.97073" lon="4.87318">
        <ele>129</ele>
      </trkpt>
      <trkpt lat="44.97064" lon="4.87343">
        <ele>129</ele>
      </trkpt>
      <trkpt lat="44.97056" lon="4.87369">
        <ele>129</ele>
      </trkpt>
      <trkpt lat="44.97049" lon="4.87383">
        <ele>129</ele>
      </trkpt>
      <trkpt lat="44.97028" lon="4.8744">
        <ele>129</ele>
      </trkpt>
      <trkpt lat="44.97009" lon="4.87471">
        <ele>129</ele>
      </trkpt>
      <trkpt lat="44.97002" lon="4.87479">
        <ele>129</ele>
      </trkpt>
      <trkpt lat="44.96993" lon="4.87483">
        <ele>129</ele>
      </trkpt>
      <trkpt lat="44.96978" lon="4.87479">
        <ele>129</ele>
      </trkpt>
      <trkpt lat="44.96968" lon="4.87479">
        <ele>129</ele>
      </trkpt>
      <trkpt lat="44.96943" lon="4.87476">
        <ele>129</ele>
      </trkpt>
      <trkpt lat="44.9691" lon="4.87473">
        <ele>129</ele>
      </trkpt>
      <trkpt lat="44.96871" lon="4.87471">
        <ele>129</ele>
      </trkpt>
      <trkpt lat="44.96827" lon="4.87467">
        <ele>129</ele>
      </trkpt>
      <trkpt lat="44.96773" lon="4.87462">
        <ele>127</ele>
      </trkpt>
      <trkpt lat="44.96754" lon="4.87455">
        <ele>126</ele>
      </trkpt>
      <trkpt lat="44.96728" lon="4.87444">
        <ele>126</ele>
      </trkpt>
      <trkpt lat="44.96723" lon="4.87439">
        <ele>126</ele>
      </trkpt>
      <trkpt lat="44.96717" lon="4.87433">
        <ele>125</ele>
      </trkpt>
      <trkpt lat="44.96712" lon="4.87426">
        <ele>125</ele>
      </trkpt>
      <trkpt lat="44.96707" lon="4.87419">
        <ele>125</ele>
      </trkpt>
      <trkpt lat="44.96703" lon="4.87412">
        <ele>124</ele>
      </trkpt>
      <trkpt lat="44.96688" lon="4.87385">
        <ele>124</ele>
      </trkpt>
      <trkpt lat="44.96654" lon="4.87351">
        <ele>122</ele>
      </trkpt>
      <trkpt lat="44.96645" lon="4.87343">
        <ele>122</ele>
      </trkpt>
      <trkpt lat="44.96631" lon="4.8733">
        <ele>122</ele>
      </trkpt>
      <trkpt lat="44.96627" lon="4.87324">
        <ele>122</ele>
      </trkpt>
      <trkpt lat="44.96608" lon="4.87305">
        <ele>122</ele>
      </trkpt>
      <trkpt lat="44.96592" lon="4.87288">
        <ele>122</ele>
      </trkpt>
      <trkpt lat="44.96572" lon="4.87286">
        <ele>122</ele>
      </trkpt>
      <trkpt lat="44.96555" lon="4.87283">
        <ele>122</ele>
      </trkpt>
      <trkpt lat="44.96544" lon="4.87276">
        <ele>122</ele>
      </trkpt>
      <trkpt lat="44.96535" lon="4.8727">
        <ele>122</ele>
      </trkpt>
      <trkpt lat="44.96521" lon="4.87262">
        <ele>122</ele>
      </trkpt>
      <trkpt lat="44.96514" lon="4.87247">
        <ele>122</ele>
      </trkpt>
      <trkpt lat="44.96511" lon="4.87242">
        <ele>122</ele>
      </trkpt>
      <trkpt lat="44.96509" lon="4.87236">
        <ele>122</ele>
      </trkpt>
      <trkpt lat="44.96503" lon="4.87213">
        <ele>122</ele>
      </trkpt>
      <trkpt lat="44.9649" lon="4.87178">
        <ele>122</ele>
      </trkpt>
      <trkpt lat="44.96472" lon="4.8715">
        <ele>122</ele>
      </trkpt>
      <trkpt lat="44.96458" lon="4.87127">
        <ele>122</ele>
      </trkpt>
      <trkpt lat="44.96448" lon="4.87115">
        <ele>122</ele>
      </trkpt>
      <trkpt lat="44.96441" lon="4.87113">
        <ele>122</ele>
      </trkpt>
      <trkpt lat="44.9643" lon="4.87123">
        <ele>122</ele>
      </trkpt>
      <trkpt lat="44.96408" lon="4.87147">
        <ele>122</ele>
      </trkpt>
      <trkpt lat="44.96392" lon="4.87153">
        <ele>122</ele>
      </trkpt>
      <trkpt lat="44.96388" lon="4.87154">
        <ele>122</ele>
      </trkpt>
      <trkpt lat="44.96368" lon="4.87153">
        <ele>122</ele>
      </trkpt>
      <trkpt lat="44.96356" lon="4.87152">
        <ele>122</ele>
      </trkpt>
      <trkpt lat="44.96347" lon="4.87156">
        <ele>122</ele>
      </trkpt>
      <trkpt lat="44.96335" lon="4.87169">
        <ele>122</ele>
      </trkpt>
      <trkpt lat="44.96331" lon="4.87173">
        <ele>122</ele>
      </trkpt>
      <trkpt lat="44.96322" lon="4.87185">
        <ele>122</ele>
      </trkpt>
      <trkpt lat="44.96309" lon="4.87203">
        <ele>122</ele>
      </trkpt>
      <trkpt lat="44.96297" lon="4.87221">
        <ele>122</ele>
      </trkpt>
      <trkpt lat="44.96284" lon="4.8724">
        <ele>122</ele>
      </trkpt>
      <trkpt lat="44.96258" lon="4.87281">
        <ele>122</ele>
      </trkpt>
      <trkpt lat="44.9624" lon="4.87309">
        <ele>122</ele>
      </trkpt>
      <trkpt lat="44.96234" lon="4.87333">
        <ele>122</ele>
      </trkpt>
      <trkpt lat="44.96244" lon="4.8735">
        <ele>122</ele>
      </trkpt>
      <trkpt lat="44.96264" lon="4.8738">
        <ele>122</ele>
      </trkpt>
      <trkpt lat="44.96269" lon="4.87385">
        <ele>121</ele>
      </trkpt>
      <trkpt lat="44.9627" lon="4.8739">
        <ele>121</ele>
      </trkpt>
      <trkpt lat="44.96269" lon="4.87401">
        <ele>120</ele>
      </trkpt>
      <trkpt lat="44.96264" lon="4.87408">
        <ele>120</ele>
      </trkpt>
      <trkpt lat="44.96254" lon="4.87422">
        <ele>120</ele>
      </trkpt>
      <trkpt lat="44.96244" lon="4.87436">
        <ele>120</ele>
      </trkpt>
      <trkpt lat="44.96243" lon="4.87438">
        <ele>120</ele>
      </trkpt>
      <trkpt lat="44.96243" lon="4.87438">
        <ele>120</ele>
      </trkpt>
      <trkpt lat="44.96243" lon="4.87438">
        <ele>120</ele>
      </trkpt>
      <trkpt lat="44.96239" lon="4.87444">
        <ele>120</ele>
      </trkpt>
      <trkpt lat="44.96225" lon="4.8745">
        <ele>120</ele>
      </trkpt>
      <trkpt lat="44.96219" lon="4.87452">
        <ele>120</ele>
      </trkpt>
      <trkpt lat="44.96219" lon="4.87452">
        <ele>120</ele>
      </trkpt>
      <trkpt lat="44.96219" lon="4.87452">
        <ele>120</ele>
      </trkpt>
      <trkpt lat="44.96219" lon="4.87452">
        <ele>120</ele>
      </trkpt>
      <trkpt lat="44.96219" lon="4.87452">
        <ele>120</ele>
      </trkpt>
      <trkpt lat="44.96219" lon="4.87452">
        <ele>120</ele>
      </trkpt>
      <trkpt lat="44.96219" lon="4.87452">
        <ele>120</ele>
      </trkpt>
      <trkpt lat="44.96219" lon="4.87452">
        <ele>120</ele>
      </trkpt>
      <trkpt lat="44.96208" lon="4.87467">
        <ele>120</ele>
      </trkpt>
      <trkpt lat="44.96189" lon="4.87496">
        <ele>120</ele>
      </trkpt>
      <trkpt lat="44.96162" lon="4.87534">
        <ele>120</ele>
      </trkpt>
      <trkpt lat="44.96141" lon="4.87566">
        <ele>120</ele>
      </trkpt>
      <trkpt lat="44.96129" lon="4.87584">
        <ele>120</ele>
      </trkpt>
      <trkpt lat="44.96122" lon="4.87593">
        <ele>120</ele>
      </trkpt>
      <trkpt lat="44.96097" lon="4.87628">
        <ele>120</ele>
      </trkpt>
      <trkpt lat="44.96066" lon="4.87666">
        <ele>120</ele>
      </trkpt>
      <trkpt lat="44.9606" lon="4.87674">
        <ele>120</ele>
      </trkpt>
      <trkpt lat="44.96044" lon="4.87693">
        <ele>120</ele>
      </trkpt>
      <trkpt lat="44.96027" lon="4.87715">
        <ele>120</ele>
      </trkpt>
      <trkpt lat="44.96017" lon="4.87725">
        <ele>120</ele>
      </trkpt>
      <trkpt lat="44.96017" lon="4.87726">
        <ele>120</ele>
      </trkpt>
      <trkpt lat="44.96017" lon="4.87726">
        <ele>120</ele>
      </trkpt>
      <trkpt lat="44.96011" lon="4.87732">
        <ele>120</ele>
      </trkpt>
      <trkpt lat="44.96005" lon="4.87738">
        <ele>120</ele>
      </trkpt>
      <trkpt lat="44.95981" lon="4.87756">
        <ele>120</ele>
      </trkpt>
      <trkpt lat="44.95947" lon="4.87781">
        <ele>118</ele>
      </trkpt>
      <trkpt lat="44.95932" lon="4.8779">
        <ele>118</ele>
      </trkpt>
      <trkpt lat="44.95927" lon="4.87794">
        <ele>118</ele>
      </trkpt>
      <trkpt lat="44.95918" lon="4.87802">
        <ele>118</ele>
      </trkpt>
      <trkpt lat="44.95919" lon="4.87801">
        <ele>117</ele>
      </trkpt>
      <trkpt lat="44.95919" lon="4.87801">
        <ele>117</ele>
      </trkpt>
      <trkpt lat="44.95919" lon="4.87801">
        <ele>116</ele>
      </trkpt>
      <trkpt lat="44.95919" lon="4.87801">
        <ele>116</ele>
      </trkpt>
      <trkpt lat="44.95919" lon="4.87801">
        <ele>116</ele>
      </trkpt>
      <trkpt lat="44.95916" lon="4.87803">
        <ele>116</ele>
      </trkpt>
      <trkpt lat="44.95912" lon="4.87806">
        <ele>116</ele>
      </trkpt>
      <trkpt lat="44.95898" lon="4.87817">
        <ele>116</ele>
      </trkpt>
      <trkpt lat="44.95895" lon="4.8782">
        <ele>116</ele>
      </trkpt>
      <trkpt lat="44.95875" lon="4.87835">
        <ele>116</ele>
      </trkpt>
      <trkpt lat="44.95836" lon="4.87864">
        <ele>116</ele>
      </trkpt>
      <trkpt lat="44.958" lon="4.87888">
        <ele>116</ele>
      </trkpt>
      <trkpt lat="44.95768" lon="4.8791">
        <ele>116</ele>
      </trkpt>
      <trkpt lat="44.95745" lon="4.87924">
        <ele>116</ele>
      </trkpt>
      <trkpt lat="44.95728" lon="4.87934">
        <ele>116</ele>
      </trkpt>
      <trkpt lat="44.95716" lon="4.8794">
        <ele>116</ele>
      </trkpt>
      <trkpt lat="44.95688" lon="4.87956">
        <ele>116</ele>
      </trkpt>
      <trkpt lat="44.95666" lon="4.87965">
        <ele>116</ele>
      </trkpt>
      <trkpt lat="44.95638" lon="4.87977">
        <ele>116</ele>
      </trkpt>
      <trkpt lat="44.95544" lon="4.88012">
        <ele>116</ele>
      </trkpt>
      <trkpt lat="44.95503" lon="4.88027">
        <ele>116</ele>
      </trkpt>
      <trkpt lat="44.95471" lon="4.88041">
        <ele>116</ele>
      </trkpt>
      <trkpt lat="44.95431" lon="4.88059">
        <ele>116</ele>
      </trkpt>
      <trkpt lat="44.95413" lon="4.88067">
        <ele>116</ele>
      </trkpt>
      <trkpt lat="44.95399" lon="4.88072">
        <ele>116</ele>
      </trkpt>
      <trkpt lat="44.95359" lon="4.8809">
        <ele>116</ele>
      </trkpt>
      <trkpt lat="44.95319" lon="4.88109">
        <ele>116</ele>
      </trkpt>
      <trkpt lat="44.95311" lon="4.88112">
        <ele>116</ele>
      </trkpt>
      <trkpt lat="44.95289" lon="4.88122">
        <ele>116</ele>
      </trkpt>
      <trkpt lat="44.95245" lon="4.88141">
        <ele>116</ele>
      </trkpt>
      <trkpt lat="44.95196" lon="4.88163">
        <ele>116</ele>
      </trkpt>
      <trkpt lat="44.95156" lon="4.88181">
        <ele>116</ele>
      </trkpt>
      <trkpt lat="44.95116" lon="4.88199">
        <ele>116</ele>
      </trkpt>
      <trkpt lat="44.95079" lon="4.88215">
        <ele>116</ele>
      </trkpt>
      <trkpt lat="44.95042" lon="4.88231">
        <ele>116</ele>
      </trkpt>
      <trkpt lat="44.95037" lon="4.88233">
        <ele>116</ele>
      </trkpt>
      <trkpt lat="44.9501" lon="4.88245">
        <ele>116</ele>
      </trkpt>
      <trkpt lat="44.94978" lon="4.88259">
        <ele>116</ele>
      </trkpt>
      <trkpt lat="44.94944" lon="4.88274">
        <ele>116</ele>
      </trkpt>
      <trkpt lat="44.94914" lon="4.88287">
        <ele>116</ele>
      </trkpt>
      <trkpt lat="44.94885" lon="4.883">
        <ele>116</ele>
      </trkpt>
      <trkpt lat="44.9488" lon="4.88302">
        <ele>116</ele>
      </trkpt>
      <trkpt lat="44.94838" lon="4.88321">
        <ele>116</ele>
      </trkpt>
      <trkpt lat="44.94796" lon="4.88341">
        <ele>116</ele>
      </trkpt>
      <trkpt lat="44.94787" lon="4.88344">
        <ele>116</ele>
      </trkpt>
      <trkpt lat="44.94754" lon="4.88359">
        <ele>116</ele>
      </trkpt>
      <trkpt lat="44.94715" lon="4.88376">
        <ele>116</ele>
      </trkpt>
      <trkpt lat="44.94677" lon="4.88392">
        <ele>116</ele>
      </trkpt>
      <trkpt lat="44.94638" lon="4.88408">
        <ele>116</ele>
      </trkpt>
      <trkpt lat="44.94604" lon="4.88424">
        <ele>116</ele>
      </trkpt>
      <trkpt lat="44.9457" lon="4.88439">
        <ele>116</ele>
      </trkpt>
      <trkpt lat="44.94565" lon="4.88441">
        <ele>116</ele>
      </trkpt>
      <trkpt lat="44.94535" lon="4.88455">
        <ele>116</ele>
      </trkpt>
      <trkpt lat="44.94497" lon="4.88473">
        <ele>116</ele>
      </trkpt>
      <trkpt lat="44.94459" lon="4.88492">
        <ele>116</ele>
      </trkpt>
      <trkpt lat="44.94419" lon="4.88514">
        <ele>116</ele>
      </trkpt>
      <trkpt lat="44.94393" lon="4.88531">
        <ele>116</ele>
      </trkpt>
      <trkpt lat="44.94388" lon="4.88537">
        <ele>116</ele>
      </trkpt>
      <trkpt lat="44.94388" lon="4.88545">
        <ele>116</ele>
      </trkpt>
      <trkpt lat="44.94391" lon="4.88556">
        <ele>116</ele>
      </trkpt>
      <trkpt lat="44.94391" lon="4.88556">
        <ele>116</ele>
      </trkpt>
      <trkpt lat="44.94401" lon="4.88553">
        <ele>116</ele>
      </trkpt>
      <trkpt lat="44.94419" lon="4.88551">
        <ele>116</ele>
      </trkpt>
      <trkpt lat="44.94431" lon="4.88562">
        <ele>116</ele>
      </trkpt>
      <trkpt lat="44.94451" lon="4.8859">
        <ele>116</ele>
      </trkpt>
      <trkpt lat="44.94469" lon="4.88616">
        <ele>116</ele>
      </trkpt>
      <trkpt lat="44.94483" lon="4.88638">
        <ele>116</ele>
      </trkpt>
      <trkpt lat="44.94487" lon="4.88654">
        <ele>116</ele>
      </trkpt>
      <trkpt lat="44.94487" lon="4.88656">
        <ele>116</ele>
      </trkpt>
      <trkpt lat="44.94487" lon="4.88656">
        <ele>116</ele>
      </trkpt>
      <trkpt lat="44.94487" lon="4.8866">
        <ele>116</ele>
      </trkpt>
      <trkpt lat="44.94488" lon="4.88681">
        <ele>116</ele>
      </trkpt>
      <trkpt lat="44.94494" lon="4.88694">
        <ele>116</ele>
      </trkpt>
      <trkpt lat="44.94497" lon="4.88698">
        <ele>116</ele>
      </trkpt>
      <trkpt lat="44.94514" lon="4.88702">
        <ele>116</ele>
      </trkpt>
      <trkpt lat="44.94524" lon="4.88695">
        <ele>116</ele>
      </trkpt>
      <trkpt lat="44.94538" lon="4.88717">
        <ele>118</ele>
      </trkpt>
      <trkpt lat="44.94539" lon="4.88725">
        <ele>118</ele>
      </trkpt>
      <trkpt lat="44.94531" lon="4.88741">
        <ele>118</ele>
      </trkpt>
      <trkpt lat="44.94523" lon="4.88761">
        <ele>118</ele>
      </trkpt>
      <trkpt lat="44.94514" lon="4.88788">
        <ele>118</ele>
      </trkpt>
      <trkpt lat="44.94509" lon="4.888">
        <ele>120</ele>
      </trkpt>
      <trkpt lat="44.94503" lon="4.88816">
        <ele>120</ele>
      </trkpt>
      <trkpt lat="44.94492" lon="4.88841">
        <ele>120</ele>
      </trkpt>
      <trkpt lat="44.94471" lon="4.88881">
        <ele>120</ele>
      </trkpt>
      <trkpt lat="44.94468" lon="4.88886">
        <ele>120</ele>
      </trkpt>
      <trkpt lat="44.94454" lon="4.88905">
        <ele>120</ele>
      </trkpt>
      <trkpt lat="44.94445" lon="4.88921">
        <ele>120</ele>
      </trkpt>
      <trkpt lat="44.94439" lon="4.88933">
        <ele>120</ele>
      </trkpt>
      <trkpt lat="44.94434" lon="4.88953">
        <ele>120</ele>
      </trkpt>
      <trkpt lat="44.94432" lon="4.88965">
        <ele>120</ele>
      </trkpt>
      <trkpt lat="44.94424" lon="4.88994">
        <ele>120</ele>
      </trkpt>
      <trkpt lat="44.94422" lon="4.88999">
        <ele>120</ele>
      </trkpt>
      <trkpt lat="44.94406" lon="4.89036">
        <ele>120</ele>
      </trkpt>
      <trkpt lat="44.94391" lon="4.8907">
        <ele>120</ele>
      </trkpt>
      <trkpt lat="44.94378" lon="4.89093">
        <ele>120</ele>
      </trkpt>
      <trkpt lat="44.94376" lon="4.89099">
        <ele>120</ele>
      </trkpt>
      <trkpt lat="44.94373" lon="4.8912">
        <ele>120</ele>
      </trkpt>
      <trkpt lat="44.94373" lon="4.89126">
        <ele>120</ele>
      </trkpt>
      <trkpt lat="44.94373" lon="4.89159">
        <ele>120</ele>
      </trkpt>
      <trkpt lat="44.94368" lon="4.89207">
        <ele>120</ele>
      </trkpt>
      <trkpt lat="44.94362" lon="4.89225">
        <ele>120</ele>
      </trkpt>
      <trkpt lat="44.94356" lon="4.89236">
        <ele>120</ele>
      </trkpt>
      <trkpt lat="44.9434" lon="4.89247">
        <ele>120</ele>
      </trkpt>
      <trkpt lat="44.94308" lon="4.89264">
        <ele>120</ele>
      </trkpt>
      <trkpt lat="44.94273" lon="4.89282">
        <ele>120</ele>
      </trkpt>
      <trkpt lat="44.94231" lon="4.89305">
        <ele>120</ele>
      </trkpt>
      <trkpt lat="44.94199" lon="4.89322">
        <ele>120</ele>
      </trkpt>
      <trkpt lat="44.94178" lon="4.89332">
        <ele>120</ele>
      </trkpt>
      <trkpt lat="44.94174" lon="4.89334">
        <ele>119</ele>
      </trkpt>
      <trkpt lat="44.9417" lon="4.89336">
        <ele>118</ele>
      </trkpt>
      <trkpt lat="44.94166" lon="4.89338">
        <ele>118</ele>
      </trkpt>
      <trkpt lat="44.94146" lon="4.89346">
        <ele>118</ele>
      </trkpt>
      <trkpt lat="44.94123" lon="4.89354">
        <ele>118</ele>
      </trkpt>
      <trkpt lat="44.94117" lon="4.89351">
        <ele>118</ele>
      </trkpt>
      <trkpt lat="44.94104" lon="4.8934">
        <ele>118</ele>
      </trkpt>
      <trkpt lat="44.94094" lon="4.89338">
        <ele>118</ele>
      </trkpt>
      <trkpt lat="44.94087" lon="4.8934">
        <ele>118</ele>
      </trkpt>
      <trkpt lat="44.94084" lon="4.89344">
        <ele>118</ele>
      </trkpt>
      <trkpt lat="44.94081" lon="4.89354">
        <ele>118</ele>
      </trkpt>
      <trkpt lat="44.94071" lon="4.89369">
        <ele>118</ele>
      </trkpt>
      <trkpt lat="44.94063" lon="4.89371">
        <ele>118</ele>
      </trkpt>
      <trkpt lat="44.94059" lon="4.8937">
        <ele>117</ele>
      </trkpt>
      <trkpt lat="44.94056" lon="4.89369">
        <ele>117</ele>
      </trkpt>
      <trkpt lat="44.94052" lon="4.89367">
        <ele>116</ele>
      </trkpt>
      <trkpt lat="44.94048" lon="4.89366">
        <ele>116</ele>
      </trkpt>
      <trkpt lat="44.94031" lon="4.8936">
        <ele>116</ele>
      </trkpt>
      <trkpt lat="44.94003" lon="4.89352">
        <ele>116</ele>
      </trkpt>
      <trkpt lat="44.93964" lon="4.8934">
        <ele>116</ele>
      </trkpt>
      <trkpt lat="44.93927" lon="4.89329">
        <ele>116</ele>
      </trkpt>
      <trkpt lat="44.93908" lon="4.89323">
        <ele>116</ele>
      </trkpt>
      <trkpt lat="44.93904" lon="4.89322">
        <ele>116</ele>
      </trkpt>
      <trkpt lat="44.93876" lon="4.89312">
        <ele>116</ele>
      </trkpt>
      <trkpt lat="44.93851" lon="4.89304">
        <ele>116</ele>
      </trkpt>
      <trkpt lat="44.93821" lon="4.89295">
        <ele>116</ele>
      </trkpt>
      <trkpt lat="44.93816" lon="4.89294">
        <ele>116</ele>
      </trkpt>
      <trkpt lat="44.93804" lon="4.89299">
        <ele>116</ele>
      </trkpt>
      <trkpt lat="44.93771" lon="4.89314">
        <ele>116</ele>
      </trkpt>
      <trkpt lat="44.93744" lon="4.89324">
        <ele>116</ele>
      </trkpt>
      <trkpt lat="44.93721" lon="4.8933">
        <ele>116</ele>
      </trkpt>
      <trkpt lat="44.93697" lon="4.89333">
        <ele>118</ele>
      </trkpt>
      <trkpt lat="44.93684" lon="4.8933">
        <ele>118</ele>
      </trkpt>
      <trkpt lat="44.93668" lon="4.89313">
        <ele>120</ele>
      </trkpt>
      <trkpt lat="44.93659" lon="4.893">
        <ele>121</ele>
      </trkpt>
      <trkpt lat="44.93648" lon="4.89282">
        <ele>122</ele>
      </trkpt>
      <trkpt lat="44.93633" lon="4.89259">
        <ele>122</ele>
      </trkpt>
      <trkpt lat="44.93609" lon="4.89226">
        <ele>124</ele>
      </trkpt>
      <trkpt lat="44.93603" lon="4.89217">
        <ele>124</ele>
      </trkpt>
      <trkpt lat="44.93597" lon="4.89224">
        <ele>124</ele>
      </trkpt>
      <trkpt lat="44.93594" lon="4.89238">
        <ele>125</ele>
      </trkpt>
      <trkpt lat="44.93559" lon="4.89309">
        <ele>128</ele>
      </trkpt>
      <trkpt lat="44.93546" lon="4.89314">
        <ele>129</ele>
      </trkpt>
      <trkpt lat="44.9354" lon="4.89329">
        <ele>129</ele>
      </trkpt>
      <trkpt lat="44.93544" lon="4.89342">
        <ele>131</ele>
      </trkpt>
      <trkpt lat="44.93529" lon="4.89383">
        <ele>131</ele>
      </trkpt>
      <trkpt lat="44.93524" lon="4.89399">
        <ele>131</ele>
      </trkpt>
      <trkpt lat="44.93519" lon="4.89415">
        <ele>131</ele>
      </trkpt>
      <trkpt lat="44.93508" lon="4.89451">
        <ele>131</ele>
      </trkpt>
      <trkpt lat="44.93498" lon="4.89476">
        <ele>131</ele>
      </trkpt>
      <trkpt lat="44.93494" lon="4.89487">
        <ele>131</ele>
      </trkpt>
      <trkpt lat="44.93483" lon="4.89513">
        <ele>131</ele>
      </trkpt>
      <trkpt lat="44.9348" lon="4.89518">
        <ele>131</ele>
      </trkpt>
      <trkpt lat="44.93461" lon="4.89534">
        <ele>131</ele>
      </trkpt>
      <trkpt lat="44.93453" lon="4.89539">
        <ele>131</ele>
      </trkpt>
      <trkpt lat="44.93439" lon="4.89548">
        <ele>131</ele>
      </trkpt>
      <trkpt lat="44.93419" lon="4.89561">
        <ele>131</ele>
      </trkpt>
      <trkpt lat="44.93408" lon="4.8957">
        <ele>131</ele>
      </trkpt>
      <trkpt lat="44.93401" lon="4.89579">
        <ele>131</ele>
      </trkpt>
      <trkpt lat="44.93389" lon="4.89594">
        <ele>131</ele>
      </trkpt>
      <trkpt lat="44.93379" lon="4.89612">
        <ele>131</ele>
      </trkpt>
      <trkpt lat="44.93367" lon="4.8963">
        <ele>131</ele>
      </trkpt>
      <trkpt lat="44.93353" lon="4.89629">
        <ele>131</ele>
      </trkpt>
      <trkpt lat="44.93338" lon="4.89617">
        <ele>131</ele>
      </trkpt>
      <trkpt lat="44.93312" lon="4.89594">
        <ele>131</ele>
      </trkpt>
      <trkpt lat="44.93287" lon="4.89574">
        <ele>131</ele>
      </trkpt>
      <trkpt lat="44.93283" lon="4.89571">
        <ele>131</ele>
      </trkpt>
      <trkpt lat="44.93266" lon="4.8956">
        <ele>131</ele>
      </trkpt>
      <trkpt lat="44.93263" lon="4.89558">
        <ele>131</ele>
      </trkpt>
      <trkpt lat="44.93237" lon="4.89543">
        <ele>131</ele>
      </trkpt>
      <trkpt lat="44.93204" lon="4.89523">
        <ele>131</ele>
      </trkpt>
      <trkpt lat="44.93178" lon="4.89506">
        <ele>131</ele>
      </trkpt>
      <trkpt lat="44.9315" lon="4.89492">
        <ele>131</ele>
      </trkpt>
      <trkpt lat="44.93046" lon="4.89452">
        <ele>113</ele>
      </trkpt>
      <trkpt lat="44.93045" lon="4.89451">
        <ele>114</ele>
      </trkpt>
      <trkpt lat="44.93043" lon="4.89451">
        <ele>114</ele>
      </trkpt>
      <trkpt lat="44.93041" lon="4.89451">
        <ele>115</ele>
      </trkpt>
      <trkpt lat="44.93038" lon="4.89449">
        <ele>129</ele>
      </trkpt>
      <trkpt lat="44.93051" lon="4.89121">
        <ele>127</ele>
      </trkpt>
      <trkpt lat="44.93052" lon="4.89072">
        <ele>127</ele>
      </trkpt>
      <trkpt lat="44.93054" lon="4.89039">
        <ele>127</ele>
      </trkpt>
      <trkpt lat="44.93052" lon="4.89009">
        <ele>127</ele>
      </trkpt>
      <trkpt lat="44.93045" lon="4.89">
        <ele>127</ele>
      </trkpt>
      <trkpt lat="44.93032" lon="4.88992">
        <ele>127</ele>
      </trkpt>
      <trkpt lat="44.93024" lon="4.88988">
        <ele>127</ele>
      </trkpt>
      <trkpt lat="44.92997" lon="4.88974">
        <ele>127</ele>
      </trkpt>
      <trkpt lat="44.92972" lon="4.8896">
        <ele>127</ele>
      </trkpt>
      <trkpt lat="44.92947" lon="4.88947">
        <ele>127</ele>
      </trkpt>
      <trkpt lat="44.92944" lon="4.88945">
        <ele>127</ele>
      </trkpt>
      <trkpt lat="44.92905" lon="4.88919">
        <ele>127</ele>
      </trkpt>
      <trkpt lat="44.92905" lon="4.88919">
        <ele>127</ele>
        <time>2013-04-24T12:26:20Z</time>
      </trkpt>
      <trkpt lat="44.92912" lon="4.88869">
        <ele>127</ele>
        <time>2013-04-24T12:27:44Z</time>
      </trkpt>
      <trkpt lat="44.92912" lon="4.88869">
        <ele>127</ele>
        <time>2013-04-24T12:27:57Z</time>
      </trkpt>
      <trkpt lat="44.92912" lon="4.88869">
        <ele>127</ele>
        <time>2013-04-24T12:28:09Z</time>
      </trkpt>
      <trkpt lat="44.92913" lon="4.88863">
        <ele>127</ele>
        <time>2013-04-24T12:28:18Z</time>
      </trkpt>
      <trkpt lat="44.9292" lon="4.88842">
        <ele>127</ele>
        <time>2013-04-24T12:28:24Z</time>
      </trkpt>
      <trkpt lat="44.92926" lon="4.88821">
        <ele>127</ele>
        <time>2013-04-24T12:28:31Z</time>
      </trkpt>
      <trkpt lat="44.9293" lon="4.88805">
        <ele>127</ele>
        <time>2013-04-24T12:28:36Z</time>
      </trkpt>
      <trkpt lat="44.92937" lon="4.88796">
        <ele>127</ele>
        <time>2013-04-24T12:28:42Z</time>
      </trkpt>
      <trkpt lat="44.92939" lon="4.88797">
        <ele>127</ele>
        <time>2013-04-24T12:28:44Z</time>
      </trkpt>
      <trkpt lat="44.92941" lon="4.88797">
        <ele>127</ele>
        <time>2013-04-24T12:28:47Z</time>
      </trkpt>
      <trkpt lat="44.92941" lon="4.88797">
        <ele>127</ele>
        <time>2013-04-24T12:29:00Z</time>
      </trkpt>
      <trkpt lat="44.92941" lon="4.88797">
        <ele>127</ele>
        <time>2013-04-24T12:29:14Z</time>
      </trkpt>
      <trkpt lat="44.92946" lon="4.88799">
        <ele>127</ele>
        <time>2013-04-24T12:29:22Z</time>
      </trkpt>
      <trkpt lat="44.92959" lon="4.88805">
        <ele>127</ele>
        <time>2013-04-24T12:29:26Z</time>
      </trkpt>
      <trkpt lat="44.92966" lon="4.88808">
        <ele>127</ele>
        <time>2013-04-24T12:29:29Z</time>
      </trkpt>
      <trkpt lat="44.92966" lon="4.88806">
        <ele>127</ele>
        <time>2013-04-24T12:29:30Z</time>
      </trkpt>
      <trkpt lat="44.92963" lon="4.88803">
        <ele>127</ele>
        <time>2013-04-24T12:29:33Z</time>
      </trkpt>
      <trkpt lat="44.92961" lon="4.88802">
        <ele>127</ele>
        <time>2013-04-24T12:29:34Z</time>
      </trkpt>
      <trkpt lat="44.92956" lon="4.888">
        <ele>126</ele>
        <time>2013-04-24T12:29:36Z</time>
      </trkpt>
      <trkpt lat="44.92954" lon="4.88799">
        <ele>126</ele>
        <time>2013-04-24T12:29:37Z</time>
      </trkpt>
      <trkpt lat="44.92952" lon="4.88797">
        <ele>126</ele>
        <time>2013-04-24T12:29:38Z</time>
      </trkpt>
      <trkpt lat="44.9295" lon="4.88797">
        <ele>125</ele>
        <time>2013-04-24T12:29:39Z</time>
      </trkpt>
      <trkpt lat="44.92948" lon="4.88795">
        <ele>125</ele>
        <time>2013-04-24T12:29:40Z</time>
      </trkpt>
      <trkpt lat="44.92946" lon="4.88793">
        <ele>125</ele>
        <time>2013-04-24T12:29:43Z</time>
      </trkpt>
      <trkpt lat="44.92946" lon="4.88791">
        <ele>125</ele>
        <time>2013-04-24T12:29:44Z</time>
      </trkpt>
      <trkpt lat="44.92945" lon="4.88787">
        <ele>125</ele>
        <time>2013-04-24T12:29:46Z</time>
      </trkpt>
      <trkpt lat="44.92945" lon="4.88787">
        <ele>125</ele>
      </trkpt>
      <trkpt lat="44.92943" lon="4.88786">
        <ele>125</ele>
        <time>2013-04-24T12:29:47Z</time>
      </trkpt>
      <trkpt lat="44.92933" lon="4.88775">
        <ele>125</ele>
        <time>2013-04-24T12:29:52Z</time>
      </trkpt>
      <trkpt lat="44.92917" lon="4.88759">
        <ele>125</ele>
        <time>2013-04-24T12:29:59Z</time>
      </trkpt>
      <trkpt lat="44.92911" lon="4.88754">
        <ele>125</ele>
        <time>2013-04-24T12:30:01Z</time>
      </trkpt>
      <trkpt lat="44.92907" lon="4.88751">
        <ele>124</ele>
        <time>2013-04-24T12:30:02Z</time>
      </trkpt>
      <trkpt lat="44.92903" lon="4.88748">
        <ele>124</ele>
        <time>2013-04-24T12:30:03Z</time>
      </trkpt>
      <trkpt lat="44.92898" lon="4.88745">
        <ele>124</ele>
        <time>2013-04-24T12:30:04Z</time>
      </trkpt>
      <trkpt lat="44.92894" lon="4.88742">
        <ele>123</ele>
        <time>2013-04-24T12:30:05Z</time>
      </trkpt>
      <trkpt lat="44.92875" lon="4.88729">
        <ele>123</ele>
        <time>2013-04-24T12:30:09Z</time>
      </trkpt>
      <trkpt lat="44.92864" lon="4.88721">
        <ele>123</ele>
        <time>2013-04-24T12:30:11Z</time>
      </trkpt>
      <trkpt lat="44.92858" lon="4.88716">
        <ele>122</ele>
        <time>2013-04-24T12:30:12Z</time>
      </trkpt>
      <trkpt lat="44.92853" lon="4.88711">
        <ele>122</ele>
        <time>2013-04-24T12:30:13Z</time>
      </trkpt>
      <trkpt lat="44.92847" lon="4.88706">
        <ele>121</ele>
        <time>2013-04-24T12:30:14Z</time>
      </trkpt>
      <trkpt lat="44.92841" lon="4.887">
        <ele>121</ele>
        <time>2013-04-24T12:30:15Z</time>
      </trkpt>
      <trkpt lat="44.92817" lon="4.88675">
        <ele>121</ele>
        <time>2013-04-24T12:30:19Z</time>
      </trkpt>
      <trkpt lat="44.92812" lon="4.88668">
        <ele>120</ele>
        <time>2013-04-24T12:30:20Z</time>
      </trkpt>
      <trkpt lat="44.92806" lon="4.88659">
        <ele>120</ele>
        <time>2013-04-24T12:30:21Z</time>
      </trkpt>
      <trkpt lat="44.92802" lon="4.8865">
        <ele>119</ele>
        <time>2013-04-24T12:30:22Z</time>
      </trkpt>
      <trkpt lat="44.92799" lon="4.88642">
        <ele>119</ele>
        <time>2013-04-24T12:30:23Z</time>
      </trkpt>
      <trkpt lat="44.92797" lon="4.88632">
        <ele>118</ele>
        <time>2013-04-24T12:30:24Z</time>
      </trkpt>
      <trkpt lat="44.92795" lon="4.88622">
        <ele>118</ele>
        <time>2013-04-24T12:30:25Z</time>
      </trkpt>
      <trkpt lat="44.92795" lon="4.88612">
        <ele>117</ele>
        <time>2013-04-24T12:30:26Z</time>
      </trkpt>
      <trkpt lat="44.92797" lon="4.88602">
        <ele>116</ele>
        <time>2013-04-24T12:30:27Z</time>
      </trkpt>
      <trkpt lat="44.92807" lon="4.88582">
        <ele>116</ele>
        <time>2013-04-24T12:30:30Z</time>
      </trkpt>
      <trkpt lat="44.9281" lon="4.88577">
        <ele>116</ele>
        <time>2013-04-24T12:30:31Z</time>
      </trkpt>
      <trkpt lat="44.92814" lon="4.88572">
        <ele>116</ele>
        <time>2013-04-24T12:30:32Z</time>
      </trkpt>
      <trkpt lat="44.92817" lon="4.88567">
        <ele>115</ele>
        <time>2013-04-24T12:30:33Z</time>
      </trkpt>
      <trkpt lat="44.9282" lon="4.88562">
        <ele>115</ele>
        <time>2013-04-24T12:30:34Z</time>
      </trkpt>
      <trkpt lat="44.92823" lon="4.88558">
        <ele>114</ele>
        <time>2013-04-24T12:30:35Z</time>
      </trkpt>
      <trkpt lat="44.92826" lon="4.88553">
        <ele>114</ele>
        <time>2013-04-24T12:30:36Z</time>
      </trkpt>
      <trkpt lat="44.92845" lon="4.88521">
        <ele>114</ele>
        <time>2013-04-24T12:30:42Z</time>
      </trkpt>
      <trkpt lat="44.9286" lon="4.885">
        <ele>114</ele>
        <time>2013-04-24T12:30:46Z</time>
      </trkpt>
      <trkpt lat="44.92867" lon="4.88489">
        <ele>114</ele>
        <time>2013-04-24T12:30:48Z</time>
      </trkpt>
      <trkpt lat="44.92874" lon="4.88478">
        <ele>114</ele>
        <time>2013-04-24T12:30:50Z</time>
      </trkpt>
      <trkpt lat="44.92882" lon="4.88459">
        <ele>114</ele>
        <time>2013-04-24T12:30:53Z</time>
      </trkpt>
      <trkpt lat="44.92886" lon="4.88437">
        <ele>114</ele>
        <time>2013-04-24T12:30:56Z</time>
      </trkpt>
      <trkpt lat="44.92889" lon="4.88423">
        <ele>114</ele>
        <time>2013-04-24T12:30:58Z</time>
      </trkpt>
      <trkpt lat="44.92895" lon="4.88376">
        <ele>114</ele>
        <time>2013-04-24T12:31:05Z</time>
      </trkpt>
      <trkpt lat="44.92895" lon="4.8837">
        <ele>114</ele>
        <time>2013-04-24T12:31:06Z</time>
      </trkpt>
      <trkpt lat="44.92905" lon="4.88337">
        <ele>114</ele>
        <time>2013-04-24T12:31:13Z</time>
      </trkpt>
      <trkpt lat="44.92915" lon="4.88282">
        <ele>114</ele>
        <time>2013-04-24T12:31:38Z</time>
      </trkpt>
      <trkpt lat="44.92938" lon="4.883">
        <ele>114</ele>
        <time>2013-04-24T12:32:00Z</time>
      </trkpt>
      <trkpt lat="44.92943" lon="4.88295">
        <ele>114</ele>
        <time>2013-04-24T12:32:03Z</time>
      </trkpt>
      <trkpt lat="44.92944" lon="4.88292">
        <ele>114</ele>
        <time>2013-04-24T12:32:04Z</time>
      </trkpt>
      <trkpt lat="44.9295" lon="4.88274">
        <ele>114</ele>
        <time>2013-04-24T12:32:11Z</time>
      </trkpt>
      <trkpt lat="44.92954" lon="4.88256">
        <ele>114</ele>
        <time>2013-04-24T12:32:17Z</time>
      </trkpt>
      <trkpt lat="44.92953" lon="4.88254">
        <ele>114</ele>
        <time>2013-04-24T12:32:18Z</time>
      </trkpt>
      <trkpt lat="44.92952" lon="4.88252">
        <ele>114</ele>
        <time>2013-04-24T12:32:19Z</time>
      </trkpt>
      <trkpt lat="44.92951" lon="4.88249">
        <ele>113</ele>
        <time>2013-04-24T12:32:20Z</time>
      </trkpt>
      <trkpt lat="44.9295" lon="4.88247">
        <ele>113</ele>
        <time>2013-04-24T12:32:21Z</time>
      </trkpt>
      <trkpt lat="44.92948" lon="4.88245">
        <ele>113</ele>
        <time>2013-04-24T12:32:22Z</time>
      </trkpt>
      <trkpt lat="44.92946" lon="4.88243">
        <ele>112</ele>
        <time>2013-04-24T12:32:23Z</time>
      </trkpt>
      <trkpt lat="44.92915" lon="4.88217">
        <ele>109</ele>
      </trkpt>
      <trkpt lat="44.92915" lon="4.88217">
        <ele>109</ele>
      </trkpt>
      <trkpt lat="44.92824" lon="4.88141">
        <ele>112</ele>
        <time>2013-04-24T12:33:47Z</time>
      </trkpt>
      <trkpt lat="44.92798" lon="4.88119">
        <ele>112</ele>
        <time>2013-04-24T12:33:55Z</time>
      </trkpt>
      <trkpt lat="44.92765" lon="4.88092">
        <ele>112</ele>
        <time>2013-04-24T12:34:04Z</time>
      </trkpt>
      <trkpt lat="44.92731" lon="4.88064">
        <ele>112</ele>
        <time>2013-04-24T12:34:13Z</time>
      </trkpt>
      <trkpt lat="44.92704" lon="4.88041">
        <ele>112</ele>
        <time>2013-04-24T12:34:20Z</time>
      </trkpt>
      <trkpt lat="44.92655" lon="4.88">
        <ele>112</ele>
        <time>2013-04-24T12:34:34Z</time>
      </trkpt>
      <trkpt lat="44.92633" lon="4.87981">
        <ele>114</ele>
        <time>2013-04-24T12:34:41Z</time>
      </trkpt>
      <trkpt lat="44.926" lon="4.87949">
        <ele>114</ele>
        <time>2013-04-24T12:34:50Z</time>
      </trkpt>
      <trkpt lat="44.92566" lon="4.87919">
        <ele>114</ele>
        <time>2013-04-24T12:34:58Z</time>
      </trkpt>
      <trkpt lat="44.92533" lon="4.87892">
        <ele>114</ele>
        <time>2013-04-24T12:35:06Z</time>
      </trkpt>
      <trkpt lat="44.92501" lon="4.87863">
        <ele>114</ele>
        <time>2013-04-24T12:35:14Z</time>
      </trkpt>
      <trkpt lat="44.9247" lon="4.87829">
        <ele>114</ele>
        <time>2013-04-24T12:35:22Z</time>
      </trkpt>
      <trkpt lat="44.92456" lon="4.87809">
        <ele>114</ele>
        <time>2013-04-24T12:35:26Z</time>
      </trkpt>
      <trkpt lat="44.9245" lon="4.87801">
        <ele>114</ele>
        <time>2013-04-24T12:35:28Z</time>
      </trkpt>
      <trkpt lat="44.92433" lon="4.87785">
        <ele>114</ele>
        <time>2013-04-24T12:35:32Z</time>
      </trkpt>
      <trkpt lat="44.92405" lon="4.87758">
        <ele>114</ele>
        <time>2013-04-24T12:35:38Z</time>
      </trkpt>
      <trkpt lat="44.92375" lon="4.87729">
        <ele>114</ele>
        <time>2013-04-24T12:35:45Z</time>
      </trkpt>
      <trkpt lat="44.92347" lon="4.877">
        <ele>114</ele>
        <time>2013-04-24T12:35:51Z</time>
      </trkpt>
      <trkpt lat="44.92307" lon="4.87669">
        <ele>114</ele>
        <time>2013-04-24T12:35:59Z</time>
      </trkpt>
      <trkpt lat="44.92302" lon="4.87666">
        <ele>114</ele>
        <time>2013-04-24T12:36:00Z</time>
      </trkpt>
      <trkpt lat="44.9228" lon="4.87652">
        <ele>112</ele>
        <time>2013-04-24T12:36:05Z</time>
      </trkpt>
      <trkpt lat="44.92256" lon="4.87638">
        <ele>112</ele>
        <time>2013-04-24T12:40:15Z</time>
      </trkpt>
      <trkpt lat="44.92246" lon="4.87628">
        <ele>112</ele>
        <time>2013-04-24T12:40:18Z</time>
      </trkpt>
      <trkpt lat="44.92242" lon="4.87625">
        <ele>112</ele>
        <time>2013-04-24T12:40:19Z</time>
      </trkpt>
      <trkpt lat="44.9221" lon="4.87599">
        <ele>112</ele>
        <time>2013-04-24T12:40:26Z</time>
      </trkpt>
      <trkpt lat="44.92177" lon="4.87568">
        <ele>112</ele>
        <time>2013-04-24T12:40:33Z</time>
      </trkpt>
      <trkpt lat="44.92142" lon="4.87538">
        <ele>112</ele>
        <time>2013-04-24T12:40:40Z</time>
      </trkpt>
      <trkpt lat="44.92109" lon="4.8751">
        <ele>112</ele>
        <time>2013-04-24T12:40:47Z</time>
      </trkpt>
      <trkpt lat="44.9208" lon="4.87489">
        <ele>112</ele>
        <time>2013-04-24T12:40:53Z</time>
      </trkpt>
      <trkpt lat="44.92051" lon="4.87464">
        <ele>112</ele>
        <time>2013-04-24T12:40:59Z</time>
      </trkpt>
      <trkpt lat="44.92019" lon="4.87444">
        <ele>112</ele>
        <time>2013-04-24T12:41:05Z</time>
      </trkpt>
      <trkpt lat="44.91972" lon="4.87415">
        <ele>112</ele>
        <time>2013-04-24T12:41:14Z</time>
      </trkpt>
      <trkpt lat="44.9193" lon="4.87393">
        <ele>112</ele>
        <time>2013-04-24T12:41:22Z</time>
      </trkpt>
      <trkpt lat="44.91891" lon="4.8738">
        <ele>112</ele>
        <time>2013-04-24T12:41:29Z</time>
      </trkpt>
      <trkpt lat="44.91865" lon="4.87368">
        <ele>112</ele>
        <time>2013-04-24T12:41:34Z</time>
      </trkpt>
      <trkpt lat="44.91842" lon="4.87358">
        <ele>112</ele>
        <time>2013-04-24T12:41:39Z</time>
      </trkpt>
      <trkpt lat="44.9182" lon="4.87349">
        <ele>112</ele>
        <time>2013-04-24T12:41:44Z</time>
      </trkpt>
      <trkpt lat="44.91804" lon="4.87342">
        <ele>112</ele>
        <time>2013-04-24T12:41:48Z</time>
      </trkpt>
      <trkpt lat="44.91799" lon="4.8734">
        <ele>112</ele>
        <time>2013-04-24T12:41:49Z</time>
      </trkpt>
      <trkpt lat="44.91769" lon="4.87334">
        <ele>112</ele>
        <time>2013-04-24T12:41:54Z</time>
      </trkpt>
      <trkpt lat="44.91745" lon="4.87333">
        <ele>112</ele>
        <time>2013-04-24T12:41:58Z</time>
      </trkpt>
      <trkpt lat="44.91739" lon="4.87335">
        <ele>112</ele>
        <time>2013-04-24T12:41:59Z</time>
      </trkpt>
      <trkpt lat="44.91707" lon="4.87349">
        <ele>112</ele>
        <time>2013-04-24T12:42:05Z</time>
      </trkpt>
      <trkpt lat="44.91681" lon="4.87369">
        <ele>112</ele>
        <time>2013-04-24T12:42:11Z</time>
      </trkpt>
      <trkpt lat="44.91664" lon="4.87377">
        <ele>112</ele>
        <time>2013-04-24T12:42:16Z</time>
      </trkpt>
      <trkpt lat="44.91658" lon="4.87382">
        <ele>112</ele>
        <time>2013-04-24T12:42:19Z</time>
      </trkpt>
      <trkpt lat="44.91656" lon="4.87381">
        <ele>112</ele>
        <time>2013-04-24T12:42:20Z</time>
      </trkpt>
      <trkpt lat="44.91653" lon="4.87379">
        <ele>112</ele>
        <time>2013-04-24T12:42:25Z</time>
      </trkpt>
      <trkpt lat="44.91653" lon="4.87379">
        <ele>112</ele>
        <time>2013-04-24T12:42:43Z</time>
      </trkpt>
      <trkpt lat="44.91651" lon="4.87379">
        <ele>112</ele>
        <time>2013-04-24T12:42:48Z</time>
      </trkpt>
      <trkpt lat="44.91647" lon="4.87381">
        <ele>112</ele>
        <time>2013-04-24T12:42:50Z</time>
      </trkpt>
      <trkpt lat="44.91647" lon="4.87381">
        <ele>112</ele>
      </trkpt>
      <trkpt lat="44.91639" lon="4.87396">
        <ele>112</ele>
        <time>2013-04-24T12:42:54Z</time>
      </trkpt>
      <trkpt lat="44.91635" lon="4.87405">
        <ele>112</ele>
        <time>2013-04-24T12:42:56Z</time>
      </trkpt>
      <trkpt lat="44.91629" lon="4.8742">
        <ele>112</ele>
        <time>2013-04-24T12:42:59Z</time>
      </trkpt>
      <trkpt lat="44.91615" lon="4.87456">
        <ele>112</ele>
        <time>2013-04-24T12:43:07Z</time>
      </trkpt>
      <trkpt lat="44.91602" lon="4.87485">
        <ele>112</ele>
        <time>2013-04-24T12:43:13Z</time>
      </trkpt>
      <trkpt lat="44.91564" lon="4.87581">
        <ele>114</ele>
        <time>2013-04-24T12:43:40Z</time>
      </trkpt>
    </trkseg>
  </trk>
</gpx>